<?xml version="1.0" encoding="UTF-8" standalone="no" ?>
<gpx xmlns="http://www.topografix.com/GPX/1/1" xmlns:xsi="http://www.w3.org/2001/XMLSchema-instance" xsi:schemaLocation="http://www.topografix.com/GPX/1/1 http://www.topografix.com/GPX/1/1/gpx.xsd" version="1.1" creator="VisuGPX - https://www.visugpx.com">
  <metadata>
    <name>Dzonfié - Quermoz </name>
    <desc><![CDATA[du village des Combes.
cf http://stephane-despreaux.imag.fr/4sup/ski/2015/1451400389887.php]]></desc>
  </metadata>
  <trk>
    <name><![CDATA[2015-12-27-01]]></name>
    <trkseg>
      <trkpt lat="45.56727" lon="6.57828">
        <ele>1891.3</ele>
        <time>2015-12-27T09:12:33Z</time>
      </trkpt>
      <trkpt lat="45.56727" lon="6.57828">
        <ele>1891.3</ele>
        <time>2015-12-27T09:12:34Z</time>
      </trkpt>
      <trkpt lat="45.56735" lon="6.57823">
        <ele>1891.3</ele>
        <time>2015-12-27T09:13:48Z</time>
      </trkpt>
      <trkpt lat="45.56743" lon="6.57817">
        <ele>1892.3</ele>
        <time>2015-12-27T09:14:00Z</time>
      </trkpt>
      <trkpt lat="45.56749" lon="6.57806">
        <ele>1893.9</ele>
        <time>2015-12-27T09:14:13Z</time>
      </trkpt>
      <trkpt lat="45.56755" lon="6.57795">
        <ele>1896.1</ele>
        <time>2015-12-27T09:14:28Z</time>
      </trkpt>
      <trkpt lat="45.56762" lon="6.57786">
        <ele>1899.1</ele>
        <time>2015-12-27T09:14:43Z</time>
      </trkpt>
      <trkpt lat="45.56769" lon="6.57777">
        <ele>1901.3</ele>
        <time>2015-12-27T09:14:57Z</time>
      </trkpt>
      <trkpt lat="45.56776" lon="6.57768">
        <ele>1903.9</ele>
        <time>2015-12-27T09:15:12Z</time>
      </trkpt>
      <trkpt lat="45.56779" lon="6.57756">
        <ele>1907.4</ele>
        <time>2015-12-27T09:15:32Z</time>
      </trkpt>
      <trkpt lat="45.56782" lon="6.57744">
        <ele>1911.3</ele>
        <time>2015-12-27T09:15:59Z</time>
      </trkpt>
      <trkpt lat="45.56782" lon="6.57731">
        <ele>1914.2</ele>
        <time>2015-12-27T09:16:19Z</time>
      </trkpt>
      <trkpt lat="45.56782" lon="6.57718">
        <ele>1919</ele>
        <time>2015-12-27T09:16:48Z</time>
      </trkpt>
      <trkpt lat="45.56787" lon="6.57706">
        <ele>1921.3</ele>
        <time>2015-12-27T09:17:03Z</time>
      </trkpt>
      <trkpt lat="45.56795" lon="6.57699">
        <ele>1923.8</ele>
        <time>2015-12-27T09:17:21Z</time>
      </trkpt>
      <trkpt lat="45.568" lon="6.57688">
        <ele>1926.7</ele>
        <time>2015-12-27T09:17:38Z</time>
      </trkpt>
      <trkpt lat="45.56797" lon="6.57675">
        <ele>1929.2</ele>
        <time>2015-12-27T09:17:54Z</time>
      </trkpt>
      <trkpt lat="45.56804" lon="6.57666">
        <ele>1931.9</ele>
        <time>2015-12-27T09:18:10Z</time>
      </trkpt>
      <trkpt lat="45.56811" lon="6.57658">
        <ele>1934.5</ele>
        <time>2015-12-27T09:18:27Z</time>
      </trkpt>
      <trkpt lat="45.5682" lon="6.57656">
        <ele>1937.4</ele>
        <time>2015-12-27T09:18:45Z</time>
      </trkpt>
      <trkpt lat="45.56829" lon="6.5765">
        <ele>1940.2</ele>
        <time>2015-12-27T09:19:01Z</time>
      </trkpt>
      <trkpt lat="45.56828" lon="6.57637">
        <ele>1943.1</ele>
        <time>2015-12-27T09:19:19Z</time>
      </trkpt>
      <trkpt lat="45.56822" lon="6.57627">
        <ele>1946</ele>
        <time>2015-12-27T09:19:37Z</time>
      </trkpt>
      <trkpt lat="45.56814" lon="6.57618">
        <ele>1948.5</ele>
        <time>2015-12-27T09:19:54Z</time>
      </trkpt>
      <trkpt lat="45.56813" lon="6.57605">
        <ele>1952.1</ele>
        <time>2015-12-27T09:20:16Z</time>
      </trkpt>
      <trkpt lat="45.5682" lon="6.57595">
        <ele>1953.9</ele>
        <time>2015-12-27T09:20:33Z</time>
      </trkpt>
      <trkpt lat="45.56826" lon="6.57584">
        <ele>1956.2</ele>
        <time>2015-12-27T09:20:51Z</time>
      </trkpt>
      <trkpt lat="45.56825" lon="6.57571">
        <ele>1960.1</ele>
        <time>2015-12-27T09:21:15Z</time>
      </trkpt>
      <trkpt lat="45.56818" lon="6.57561">
        <ele>1962.5</ele>
        <time>2015-12-27T09:21:29Z</time>
      </trkpt>
      <trkpt lat="45.5681" lon="6.57553">
        <ele>1965.4</ele>
        <time>2015-12-27T09:21:50Z</time>
      </trkpt>
      <trkpt lat="45.5681" lon="6.5754">
        <ele>1970.7</ele>
        <time>2015-12-27T09:22:32Z</time>
      </trkpt>
      <trkpt lat="45.56817" lon="6.57532">
        <ele>1971.8</ele>
        <time>2015-12-27T09:22:45Z</time>
      </trkpt>
      <trkpt lat="45.56824" lon="6.57523">
        <ele>1973.8</ele>
        <time>2015-12-27T09:23:06Z</time>
      </trkpt>
      <trkpt lat="45.56821" lon="6.57511">
        <ele>1978.3</ele>
        <time>2015-12-27T09:23:35Z</time>
      </trkpt>
      <trkpt lat="45.56828" lon="6.57501">
        <ele>1981.2</ele>
        <time>2015-12-27T09:23:54Z</time>
      </trkpt>
      <trkpt lat="45.56838" lon="6.57501">
        <ele>1982.9</ele>
        <time>2015-12-27T09:24:07Z</time>
      </trkpt>
      <trkpt lat="45.56847" lon="6.575">
        <ele>1984.3</ele>
        <time>2015-12-27T09:24:20Z</time>
      </trkpt>
      <trkpt lat="45.56857" lon="6.57499">
        <ele>1985.2</ele>
        <time>2015-12-27T09:24:32Z</time>
      </trkpt>
      <trkpt lat="45.56866" lon="6.57497">
        <ele>1987.8</ele>
        <time>2015-12-27T09:24:48Z</time>
      </trkpt>
      <trkpt lat="45.56874" lon="6.57491">
        <ele>1990.2</ele>
        <time>2015-12-27T09:25:09Z</time>
      </trkpt>
      <trkpt lat="45.56882" lon="6.57484">
        <ele>1992.4</ele>
        <time>2015-12-27T09:25:27Z</time>
      </trkpt>
      <trkpt lat="45.56881" lon="6.57471">
        <ele>1994.5</ele>
        <time>2015-12-27T09:25:44Z</time>
      </trkpt>
      <trkpt lat="45.56886" lon="6.5746">
        <ele>1996.6</ele>
        <time>2015-12-27T09:25:58Z</time>
      </trkpt>
      <trkpt lat="45.56892" lon="6.57449">
        <ele>1997.8</ele>
        <time>2015-12-27T09:26:11Z</time>
      </trkpt>
      <trkpt lat="45.56898" lon="6.5744">
        <ele>1999.1</ele>
        <time>2015-12-27T09:26:26Z</time>
      </trkpt>
      <trkpt lat="45.56905" lon="6.5743">
        <ele>2000.9</ele>
        <time>2015-12-27T09:26:41Z</time>
      </trkpt>
      <trkpt lat="45.56912" lon="6.57422">
        <ele>2002.5</ele>
        <time>2015-12-27T09:26:54Z</time>
      </trkpt>
      <trkpt lat="45.56903" lon="6.57421">
        <ele>2005.6</ele>
        <time>2015-12-27T09:28:49Z</time>
      </trkpt>
      <trkpt lat="45.56894" lon="6.57423">
        <ele>2005.6</ele>
        <time>2015-12-27T09:29:00Z</time>
      </trkpt>
      <trkpt lat="45.56884" lon="6.57421">
        <ele>2005.8</ele>
        <time>2015-12-27T09:29:15Z</time>
      </trkpt>
      <trkpt lat="45.5688" lon="6.57408">
        <ele>2009.7</ele>
        <time>2015-12-27T09:29:45Z</time>
      </trkpt>
      <trkpt lat="45.56873" lon="6.57399">
        <ele>2012.7</ele>
        <time>2015-12-27T09:30:08Z</time>
      </trkpt>
      <trkpt lat="45.56864" lon="6.57395">
        <ele>2016.9</ele>
        <time>2015-12-27T09:30:30Z</time>
      </trkpt>
      <trkpt lat="45.56855" lon="6.57393">
        <ele>2020.9</ele>
        <time>2015-12-27T09:30:54Z</time>
      </trkpt>
      <trkpt lat="45.56846" lon="6.57392">
        <ele>2023.9</ele>
        <time>2015-12-27T09:31:15Z</time>
      </trkpt>
      <trkpt lat="45.56837" lon="6.57387">
        <ele>2026.3</ele>
        <time>2015-12-27T09:31:32Z</time>
      </trkpt>
      <trkpt lat="45.56828" lon="6.57384">
        <ele>2031.1</ele>
        <time>2015-12-27T09:32:30Z</time>
      </trkpt>
      <trkpt lat="45.56819" lon="6.57382">
        <ele>2031.6</ele>
        <time>2015-12-27T09:32:43Z</time>
      </trkpt>
      <trkpt lat="45.56817" lon="6.57369">
        <ele>2033.9</ele>
        <time>2015-12-27T09:33:05Z</time>
      </trkpt>
      <trkpt lat="45.56822" lon="6.57358">
        <ele>2035.3</ele>
        <time>2015-12-27T09:33:21Z</time>
      </trkpt>
      <trkpt lat="45.56824" lon="6.57345">
        <ele>2036.7</ele>
        <time>2015-12-27T09:33:38Z</time>
      </trkpt>
      <trkpt lat="45.56827" lon="6.57333">
        <ele>2039.8</ele>
        <time>2015-12-27T09:33:54Z</time>
      </trkpt>
      <trkpt lat="45.56832" lon="6.57321">
        <ele>2042.6</ele>
        <time>2015-12-27T09:34:14Z</time>
      </trkpt>
      <trkpt lat="45.56837" lon="6.5731">
        <ele>2044.9</ele>
        <time>2015-12-27T09:34:34Z</time>
      </trkpt>
      <trkpt lat="45.56844" lon="6.573">
        <ele>2047.2</ele>
        <time>2015-12-27T09:34:52Z</time>
      </trkpt>
      <trkpt lat="45.56851" lon="6.5729">
        <ele>2048.9</ele>
        <time>2015-12-27T09:35:09Z</time>
      </trkpt>
      <trkpt lat="45.56858" lon="6.57284">
        <ele>2052</ele>
        <time>2015-12-27T09:35:29Z</time>
      </trkpt>
      <trkpt lat="45.56866" lon="6.57275">
        <ele>2054.2</ele>
        <time>2015-12-27T09:35:46Z</time>
      </trkpt>
      <trkpt lat="45.56873" lon="6.57267">
        <ele>2057.4</ele>
        <time>2015-12-27T09:36:08Z</time>
      </trkpt>
      <trkpt lat="45.5688" lon="6.57259">
        <ele>2060.1</ele>
        <time>2015-12-27T09:36:25Z</time>
      </trkpt>
      <trkpt lat="45.56888" lon="6.57251">
        <ele>2062.9</ele>
        <time>2015-12-27T09:36:44Z</time>
      </trkpt>
      <trkpt lat="45.56894" lon="6.57242">
        <ele>2065.5</ele>
        <time>2015-12-27T09:37:04Z</time>
      </trkpt>
      <trkpt lat="45.56898" lon="6.57231">
        <ele>2068.6</ele>
        <time>2015-12-27T09:37:23Z</time>
      </trkpt>
      <trkpt lat="45.56899" lon="6.57218">
        <ele>2073</ele>
        <time>2015-12-27T09:37:59Z</time>
      </trkpt>
      <trkpt lat="45.56901" lon="6.57204">
        <ele>2074.2</ele>
        <time>2015-12-27T09:38:24Z</time>
      </trkpt>
      <trkpt lat="45.56903" lon="6.57191">
        <ele>2075.1</ele>
        <time>2015-12-27T09:38:36Z</time>
      </trkpt>
      <trkpt lat="45.56906" lon="6.57179">
        <ele>2075.5</ele>
        <time>2015-12-27T09:38:49Z</time>
      </trkpt>
      <trkpt lat="45.56904" lon="6.57166">
        <ele>2077.8</ele>
        <time>2015-12-27T09:40:38Z</time>
      </trkpt>
      <trkpt lat="45.56909" lon="6.57154">
        <ele>2078.4</ele>
        <time>2015-12-27T09:40:52Z</time>
      </trkpt>
      <trkpt lat="45.56914" lon="6.57143">
        <ele>2079.6</ele>
        <time>2015-12-27T09:41:11Z</time>
      </trkpt>
      <trkpt lat="45.56919" lon="6.57131">
        <ele>2081.9</ele>
        <time>2015-12-27T09:41:29Z</time>
      </trkpt>
      <trkpt lat="45.56922" lon="6.57119">
        <ele>2084.1</ele>
        <time>2015-12-27T09:41:44Z</time>
      </trkpt>
      <trkpt lat="45.56926" lon="6.57107">
        <ele>2085.9</ele>
        <time>2015-12-27T09:41:57Z</time>
      </trkpt>
      <trkpt lat="45.56928" lon="6.57094">
        <ele>2087.4</ele>
        <time>2015-12-27T09:42:12Z</time>
      </trkpt>
      <trkpt lat="45.56934" lon="6.57084">
        <ele>2088.4</ele>
        <time>2015-12-27T09:42:25Z</time>
      </trkpt>
      <trkpt lat="45.56936" lon="6.57071">
        <ele>2089.5</ele>
        <time>2015-12-27T09:42:42Z</time>
      </trkpt>
      <trkpt lat="45.5693" lon="6.5706">
        <ele>2092.4</ele>
        <time>2015-12-27T09:43:00Z</time>
      </trkpt>
      <trkpt lat="45.56923" lon="6.57051">
        <ele>2095.3</ele>
        <time>2015-12-27T09:43:23Z</time>
      </trkpt>
      <trkpt lat="45.56916" lon="6.57043">
        <ele>2098.6</ele>
        <time>2015-12-27T09:43:43Z</time>
      </trkpt>
      <trkpt lat="45.56908" lon="6.57035">
        <ele>2101.9</ele>
        <time>2015-12-27T09:44:07Z</time>
      </trkpt>
      <trkpt lat="45.56915" lon="6.57026">
        <ele>2106.8</ele>
        <time>2015-12-27T09:44:36Z</time>
      </trkpt>
      <trkpt lat="45.56922" lon="6.57019">
        <ele>2109.4</ele>
        <time>2015-12-27T09:44:55Z</time>
      </trkpt>
      <trkpt lat="45.56915" lon="6.57012">
        <ele>2113.2</ele>
        <time>2015-12-27T09:45:28Z</time>
      </trkpt>
      <trkpt lat="45.56909" lon="6.57002">
        <ele>2118.1</ele>
        <time>2015-12-27T09:45:48Z</time>
      </trkpt>
      <trkpt lat="45.56901" lon="6.56996">
        <ele>2119.8</ele>
        <time>2015-12-27T09:46:07Z</time>
      </trkpt>
      <trkpt lat="45.56903" lon="6.56983">
        <ele>2124.4</ele>
        <time>2015-12-27T09:46:36Z</time>
      </trkpt>
      <trkpt lat="45.56911" lon="6.56977">
        <ele>2124.6</ele>
        <time>2015-12-27T09:46:54Z</time>
      </trkpt>
      <trkpt lat="45.56915" lon="6.56964">
        <ele>2125.7</ele>
        <time>2015-12-27T09:47:05Z</time>
      </trkpt>
      <trkpt lat="45.56921" lon="6.56952">
        <ele>2126.7</ele>
        <time>2015-12-27T09:47:17Z</time>
      </trkpt>
      <trkpt lat="45.56926" lon="6.56941">
        <ele>2127.1</ele>
        <time>2015-12-27T09:47:26Z</time>
      </trkpt>
      <trkpt lat="45.5693" lon="6.5693">
        <ele>2127.6</ele>
        <time>2015-12-27T09:47:36Z</time>
      </trkpt>
      <trkpt lat="45.56932" lon="6.56926">
        <ele>2127.6</ele>
        <time>2015-12-27T09:47:39Z</time>
      </trkpt>
      <trkpt lat="45.5698" lon="6.56888">
        <ele>2127</ele>
        <time>2015-12-27T09:48:59Z</time>
      </trkpt>
      <trkpt lat="45.56989" lon="6.56885">
        <ele>2126.5</ele>
        <time>2015-12-27T09:49:10Z</time>
      </trkpt>
      <trkpt lat="45.56998" lon="6.56883">
        <ele>2126.2</ele>
        <time>2015-12-27T09:49:20Z</time>
      </trkpt>
      <trkpt lat="45.57008" lon="6.56879">
        <ele>2126</ele>
        <time>2015-12-27T09:49:31Z</time>
      </trkpt>
      <trkpt lat="45.57017" lon="6.5688">
        <ele>2126.9</ele>
        <time>2015-12-27T09:49:44Z</time>
      </trkpt>
      <trkpt lat="45.57026" lon="6.56885">
        <ele>2128.6</ele>
        <time>2015-12-27T09:49:56Z</time>
      </trkpt>
      <trkpt lat="45.57034" lon="6.56892">
        <ele>2130.7</ele>
        <time>2015-12-27T09:50:13Z</time>
      </trkpt>
      <trkpt lat="45.57043" lon="6.56897">
        <ele>2133</ele>
        <time>2015-12-27T09:50:28Z</time>
      </trkpt>
      <trkpt lat="45.57051" lon="6.56903">
        <ele>2135.3</ele>
        <time>2015-12-27T09:50:45Z</time>
      </trkpt>
      <trkpt lat="45.5706" lon="6.56903">
        <ele>2137</ele>
        <time>2015-12-27T09:50:58Z</time>
      </trkpt>
      <trkpt lat="45.57069" lon="6.56909">
        <ele>2138.8</ele>
        <time>2015-12-27T09:51:12Z</time>
      </trkpt>
      <trkpt lat="45.57079" lon="6.56911">
        <ele>2140.7</ele>
        <time>2015-12-27T09:51:24Z</time>
      </trkpt>
      <trkpt lat="45.57087" lon="6.56905">
        <ele>2142.9</ele>
        <time>2015-12-27T09:51:38Z</time>
      </trkpt>
      <trkpt lat="45.57096" lon="6.569">
        <ele>2144.9</ele>
        <time>2015-12-27T09:51:53Z</time>
      </trkpt>
      <trkpt lat="45.57105" lon="6.56902">
        <ele>2146.4</ele>
        <time>2015-12-27T09:52:04Z</time>
      </trkpt>
      <trkpt lat="45.57114" lon="6.56907">
        <ele>2147.8</ele>
        <time>2015-12-27T09:52:16Z</time>
      </trkpt>
      <trkpt lat="45.57123" lon="6.5691">
        <ele>2149.5</ele>
        <time>2015-12-27T09:52:29Z</time>
      </trkpt>
      <trkpt lat="45.57132" lon="6.56916">
        <ele>2151.7</ele>
        <time>2015-12-27T09:52:46Z</time>
      </trkpt>
      <trkpt lat="45.57141" lon="6.56914">
        <ele>2153.1</ele>
        <time>2015-12-27T09:52:59Z</time>
      </trkpt>
      <trkpt lat="45.5715" lon="6.56913">
        <ele>2154.6</ele>
        <time>2015-12-27T09:53:13Z</time>
      </trkpt>
      <trkpt lat="45.5716" lon="6.56913">
        <ele>2155.8</ele>
        <time>2015-12-27T09:53:26Z</time>
      </trkpt>
      <trkpt lat="45.57168" lon="6.56918">
        <ele>2157.5</ele>
        <time>2015-12-27T09:53:41Z</time>
      </trkpt>
      <trkpt lat="45.57177" lon="6.56916">
        <ele>2164</ele>
        <time>2015-12-27T09:54:19Z</time>
      </trkpt>
      <trkpt lat="45.57184" lon="6.56907">
        <ele>2163.3</ele>
        <time>2015-12-27T09:54:37Z</time>
      </trkpt>
      <trkpt lat="45.57182" lon="6.56894">
        <ele>2165.6</ele>
        <time>2015-12-27T09:55:11Z</time>
      </trkpt>
      <trkpt lat="45.57185" lon="6.56882">
        <ele>2170.8</ele>
        <time>2015-12-27T09:55:40Z</time>
      </trkpt>
      <trkpt lat="45.57194" lon="6.56879">
        <ele>2174.7</ele>
        <time>2015-12-27T09:56:38Z</time>
      </trkpt>
      <trkpt lat="45.57204" lon="6.5688">
        <ele>2175.9</ele>
        <time>2015-12-27T09:56:52Z</time>
      </trkpt>
      <trkpt lat="45.57213" lon="6.56879">
        <ele>2177.8</ele>
        <time>2015-12-27T09:57:09Z</time>
      </trkpt>
      <trkpt lat="45.57222" lon="6.56875">
        <ele>2179.3</ele>
        <time>2015-12-27T09:57:20Z</time>
      </trkpt>
      <trkpt lat="45.57231" lon="6.56874">
        <ele>2180.8</ele>
        <time>2015-12-27T09:57:31Z</time>
      </trkpt>
      <trkpt lat="45.5724" lon="6.56873">
        <ele>2182.3</ele>
        <time>2015-12-27T09:57:44Z</time>
      </trkpt>
      <trkpt lat="45.57249" lon="6.56871">
        <ele>2183.4</ele>
        <time>2015-12-27T09:57:55Z</time>
      </trkpt>
      <trkpt lat="45.57259" lon="6.56872">
        <ele>2185.6</ele>
        <time>2015-12-27T09:58:27Z</time>
      </trkpt>
      <trkpt lat="45.57268" lon="6.56876">
        <ele>2185.8</ele>
        <time>2015-12-27T09:58:38Z</time>
      </trkpt>
      <trkpt lat="45.57277" lon="6.5688">
        <ele>2185.9</ele>
        <time>2015-12-27T09:58:49Z</time>
      </trkpt>
      <trkpt lat="45.57287" lon="6.56883">
        <ele>2186</ele>
        <time>2015-12-27T09:59:02Z</time>
      </trkpt>
      <trkpt lat="45.57298" lon="6.56884">
        <ele>2187</ele>
        <time>2015-12-27T09:59:15Z</time>
      </trkpt>
      <trkpt lat="45.57307" lon="6.56884">
        <ele>2188.3</ele>
        <time>2015-12-27T09:59:25Z</time>
      </trkpt>
      <trkpt lat="45.57316" lon="6.56887">
        <ele>2189.2</ele>
        <time>2015-12-27T09:59:38Z</time>
      </trkpt>
      <trkpt lat="45.57325" lon="6.5689">
        <ele>2190.1</ele>
        <time>2015-12-27T09:59:47Z</time>
      </trkpt>
      <trkpt lat="45.57334" lon="6.56891">
        <ele>2191.6</ele>
        <time>2015-12-27T10:00:01Z</time>
      </trkpt>
      <trkpt lat="45.57344" lon="6.56888">
        <ele>2193.2</ele>
        <time>2015-12-27T10:00:14Z</time>
      </trkpt>
      <trkpt lat="45.57353" lon="6.56889">
        <ele>2194.9</ele>
        <time>2015-12-27T10:00:30Z</time>
      </trkpt>
      <trkpt lat="45.57363" lon="6.56895">
        <ele>2197.5</ele>
        <time>2015-12-27T10:00:46Z</time>
      </trkpt>
      <trkpt lat="45.57371" lon="6.56899">
        <ele>2199.3</ele>
        <time>2015-12-27T10:00:59Z</time>
      </trkpt>
      <trkpt lat="45.5738" lon="6.56901">
        <ele>2200.3</ele>
        <time>2015-12-27T10:01:08Z</time>
      </trkpt>
      <trkpt lat="45.57389" lon="6.56903">
        <ele>2202.1</ele>
        <time>2015-12-27T10:01:22Z</time>
      </trkpt>
      <trkpt lat="45.57398" lon="6.56908">
        <ele>2206.7</ele>
        <time>2015-12-27T10:03:01Z</time>
      </trkpt>
      <trkpt lat="45.57402" lon="6.56921">
        <ele>2206.8</ele>
        <time>2015-12-27T10:03:07Z</time>
      </trkpt>
      <trkpt lat="45.57406" lon="6.56934">
        <ele>2206.6</ele>
        <time>2015-12-27T10:03:13Z</time>
      </trkpt>
      <trkpt lat="45.57411" lon="6.56945">
        <ele>2206.2</ele>
        <time>2015-12-27T10:03:19Z</time>
      </trkpt>
      <trkpt lat="45.57416" lon="6.56957">
        <ele>2205.6</ele>
        <time>2015-12-27T10:03:27Z</time>
      </trkpt>
      <trkpt lat="45.57421" lon="6.56969">
        <ele>2205.1</ele>
        <time>2015-12-27T10:03:33Z</time>
      </trkpt>
      <trkpt lat="45.57425" lon="6.56981">
        <ele>2204.2</ele>
        <time>2015-12-27T10:03:42Z</time>
      </trkpt>
      <trkpt lat="45.57433" lon="6.56991">
        <ele>2203.8</ele>
        <time>2015-12-27T10:03:50Z</time>
      </trkpt>
      <trkpt lat="45.57441" lon="6.57">
        <ele>2203.1</ele>
        <time>2015-12-27T10:03:57Z</time>
      </trkpt>
      <trkpt lat="45.57447" lon="6.57013">
        <ele>2202.5</ele>
        <time>2015-12-27T10:04:04Z</time>
      </trkpt>
      <trkpt lat="45.57451" lon="6.57024">
        <ele>2201.9</ele>
        <time>2015-12-27T10:04:10Z</time>
      </trkpt>
      <trkpt lat="45.57455" lon="6.57042">
        <ele>2201.1</ele>
        <time>2015-12-27T10:04:15Z</time>
      </trkpt>
      <trkpt lat="45.57459" lon="6.57054">
        <ele>2200.5</ele>
        <time>2015-12-27T10:04:18Z</time>
      </trkpt>
      <trkpt lat="45.57463" lon="6.57068">
        <ele>2198.2</ele>
        <time>2015-12-27T10:04:26Z</time>
      </trkpt>
      <trkpt lat="45.57468" lon="6.5708">
        <ele>2197</ele>
        <time>2015-12-27T10:04:32Z</time>
      </trkpt>
      <trkpt lat="45.57472" lon="6.57093">
        <ele>2195.8</ele>
        <time>2015-12-27T10:04:38Z</time>
      </trkpt>
      <trkpt lat="45.57477" lon="6.57106">
        <ele>2194.6</ele>
        <time>2015-12-27T10:04:44Z</time>
      </trkpt>
      <trkpt lat="45.57481" lon="6.57118">
        <ele>2193.7</ele>
        <time>2015-12-27T10:04:50Z</time>
      </trkpt>
      <trkpt lat="45.57487" lon="6.57129">
        <ele>2192.7</ele>
        <time>2015-12-27T10:04:56Z</time>
      </trkpt>
      <trkpt lat="45.5749" lon="6.57141">
        <ele>2191.6</ele>
        <time>2015-12-27T10:05:03Z</time>
      </trkpt>
      <trkpt lat="45.57496" lon="6.57153">
        <ele>2190.5</ele>
        <time>2015-12-27T10:05:12Z</time>
      </trkpt>
      <trkpt lat="45.57499" lon="6.57165">
        <ele>2189.8</ele>
        <time>2015-12-27T10:05:21Z</time>
      </trkpt>
      <trkpt lat="45.57504" lon="6.57177">
        <ele>2189.6</ele>
        <time>2015-12-27T10:05:30Z</time>
      </trkpt>
      <trkpt lat="45.57509" lon="6.57188">
        <ele>2189.6</ele>
        <time>2015-12-27T10:05:38Z</time>
      </trkpt>
      <trkpt lat="45.57513" lon="6.57201">
        <ele>2189.8</ele>
        <time>2015-12-27T10:05:47Z</time>
      </trkpt>
      <trkpt lat="45.57517" lon="6.57214">
        <ele>2190.1</ele>
        <time>2015-12-27T10:05:56Z</time>
      </trkpt>
      <trkpt lat="45.57522" lon="6.57227">
        <ele>2190.3</ele>
        <time>2015-12-27T10:06:04Z</time>
      </trkpt>
      <trkpt lat="45.57527" lon="6.57238">
        <ele>2190.5</ele>
        <time>2015-12-27T10:06:14Z</time>
      </trkpt>
      <trkpt lat="45.57534" lon="6.57248">
        <ele>2190.6</ele>
        <time>2015-12-27T10:06:22Z</time>
      </trkpt>
      <trkpt lat="45.57541" lon="6.57258">
        <ele>2190.6</ele>
        <time>2015-12-27T10:06:27Z</time>
      </trkpt>
      <trkpt lat="45.57546" lon="6.57269">
        <ele>2190.7</ele>
        <time>2015-12-27T10:06:34Z</time>
      </trkpt>
      <trkpt lat="45.57552" lon="6.57281">
        <ele>2190.3</ele>
        <time>2015-12-27T10:06:44Z</time>
      </trkpt>
      <trkpt lat="45.57556" lon="6.57293">
        <ele>2190</ele>
        <time>2015-12-27T10:06:53Z</time>
      </trkpt>
      <trkpt lat="45.57562" lon="6.57305">
        <ele>2189.9</ele>
        <time>2015-12-27T10:07:02Z</time>
      </trkpt>
      <trkpt lat="45.57568" lon="6.57316">
        <ele>2189.9</ele>
        <time>2015-12-27T10:07:13Z</time>
      </trkpt>
      <trkpt lat="45.57575" lon="6.57325">
        <ele>2189.9</ele>
        <time>2015-12-27T10:07:24Z</time>
      </trkpt>
      <trkpt lat="45.5758" lon="6.57336">
        <ele>2189.9</ele>
        <time>2015-12-27T10:07:34Z</time>
      </trkpt>
      <trkpt lat="45.57584" lon="6.57349">
        <ele>2190.3</ele>
        <time>2015-12-27T10:07:49Z</time>
      </trkpt>
      <trkpt lat="45.57589" lon="6.5736">
        <ele>2194.3</ele>
        <time>2015-12-27T10:08:24Z</time>
      </trkpt>
      <trkpt lat="45.57598" lon="6.57365">
        <ele>2195.6</ele>
        <time>2015-12-27T10:08:38Z</time>
      </trkpt>
      <trkpt lat="45.57608" lon="6.57368">
        <ele>2196.2</ele>
        <time>2015-12-27T10:08:51Z</time>
      </trkpt>
      <trkpt lat="45.57618" lon="6.57372">
        <ele>2197</ele>
        <time>2015-12-27T10:09:03Z</time>
      </trkpt>
      <trkpt lat="45.57628" lon="6.57376">
        <ele>2197.4</ele>
        <time>2015-12-27T10:09:12Z</time>
      </trkpt>
      <trkpt lat="45.57634" lon="6.57385">
        <ele>2197.6</ele>
        <time>2015-12-27T10:09:20Z</time>
      </trkpt>
      <trkpt lat="45.57641" lon="6.57395">
        <ele>2197.9</ele>
        <time>2015-12-27T10:09:28Z</time>
      </trkpt>
      <trkpt lat="45.57647" lon="6.57406">
        <ele>2198.4</ele>
        <time>2015-12-27T10:09:37Z</time>
      </trkpt>
      <trkpt lat="45.57652" lon="6.57417">
        <ele>2198.8</ele>
        <time>2015-12-27T10:09:47Z</time>
      </trkpt>
      <trkpt lat="45.5766" lon="6.57426">
        <ele>2199.1</ele>
        <time>2015-12-27T10:09:57Z</time>
      </trkpt>
      <trkpt lat="45.57667" lon="6.57435">
        <ele>2199.3</ele>
        <time>2015-12-27T10:10:06Z</time>
      </trkpt>
      <trkpt lat="45.57674" lon="6.57444">
        <ele>2199.4</ele>
        <time>2015-12-27T10:10:13Z</time>
      </trkpt>
      <trkpt lat="45.57684" lon="6.57442">
        <ele>2199.1</ele>
        <time>2015-12-27T10:10:29Z</time>
      </trkpt>
      <trkpt lat="45.57689" lon="6.57432">
        <ele>2200.1</ele>
        <time>2015-12-27T10:10:47Z</time>
      </trkpt>
      <trkpt lat="45.57694" lon="6.57444">
        <ele>2202.4</ele>
        <time>2015-12-27T10:11:02Z</time>
      </trkpt>
      <trkpt lat="45.57703" lon="6.57446">
        <ele>2206</ele>
        <time>2015-12-27T10:11:28Z</time>
      </trkpt>
      <trkpt lat="45.57712" lon="6.57441">
        <ele>2208.2</ele>
        <time>2015-12-27T10:11:44Z</time>
      </trkpt>
      <trkpt lat="45.5772" lon="6.57445">
        <ele>2209.6</ele>
        <time>2015-12-27T10:11:52Z</time>
      </trkpt>
      <trkpt lat="45.5773" lon="6.57443">
        <ele>2211</ele>
        <time>2015-12-27T10:12:03Z</time>
      </trkpt>
      <trkpt lat="45.57738" lon="6.57437">
        <ele>2212.6</ele>
        <time>2015-12-27T10:12:20Z</time>
      </trkpt>
      <trkpt lat="45.57748" lon="6.57439">
        <ele>2215.1</ele>
        <time>2015-12-27T10:12:38Z</time>
      </trkpt>
      <trkpt lat="45.57757" lon="6.57441">
        <ele>2217.8</ele>
        <time>2015-12-27T10:12:55Z</time>
      </trkpt>
      <trkpt lat="45.57766" lon="6.57446">
        <ele>2220.5</ele>
        <time>2015-12-27T10:13:08Z</time>
      </trkpt>
      <trkpt lat="45.57775" lon="6.5745">
        <ele>2222.2</ele>
        <time>2015-12-27T10:13:20Z</time>
      </trkpt>
      <trkpt lat="45.57784" lon="6.57454">
        <ele>2226.9</ele>
        <time>2015-12-27T10:14:38Z</time>
      </trkpt>
      <trkpt lat="45.57792" lon="6.57458">
        <ele>2226.9</ele>
        <time>2015-12-27T10:14:50Z</time>
      </trkpt>
      <trkpt lat="45.57802" lon="6.57457">
        <ele>2227.4</ele>
        <time>2015-12-27T10:15:05Z</time>
      </trkpt>
      <trkpt lat="45.57812" lon="6.5746">
        <ele>2229.7</ele>
        <time>2015-12-27T10:15:19Z</time>
      </trkpt>
      <trkpt lat="45.57821" lon="6.57463">
        <ele>2231.2</ele>
        <time>2015-12-27T10:15:32Z</time>
      </trkpt>
      <trkpt lat="45.5783" lon="6.57467">
        <ele>2232.4</ele>
        <time>2015-12-27T10:15:43Z</time>
      </trkpt>
      <trkpt lat="45.57839" lon="6.5747">
        <ele>2234</ele>
        <time>2015-12-27T10:15:56Z</time>
      </trkpt>
      <trkpt lat="45.57848" lon="6.57474">
        <ele>2237.8</ele>
        <time>2015-12-27T10:16:41Z</time>
      </trkpt>
      <trkpt lat="45.57857" lon="6.57479">
        <ele>2239.1</ele>
        <time>2015-12-27T10:16:55Z</time>
      </trkpt>
      <trkpt lat="45.57866" lon="6.5748">
        <ele>2240.7</ele>
        <time>2015-12-27T10:17:10Z</time>
      </trkpt>
      <trkpt lat="45.57875" lon="6.5748">
        <ele>2241.7</ele>
        <time>2015-12-27T10:17:21Z</time>
      </trkpt>
      <trkpt lat="45.57885" lon="6.57481">
        <ele>2242.3</ele>
        <time>2015-12-27T10:17:30Z</time>
      </trkpt>
      <trkpt lat="45.57894" lon="6.57482">
        <ele>2243.8</ele>
        <time>2015-12-27T10:17:42Z</time>
      </trkpt>
      <trkpt lat="45.57903" lon="6.57483">
        <ele>2244.6</ele>
        <time>2015-12-27T10:17:53Z</time>
      </trkpt>
      <trkpt lat="45.57912" lon="6.57487">
        <ele>2245.6</ele>
        <time>2015-12-27T10:18:07Z</time>
      </trkpt>
      <trkpt lat="45.57921" lon="6.57493">
        <ele>2247.3</ele>
        <time>2015-12-27T10:18:20Z</time>
      </trkpt>
      <trkpt lat="45.57928" lon="6.57502">
        <ele>2249.5</ele>
        <time>2015-12-27T10:18:35Z</time>
      </trkpt>
      <trkpt lat="45.57932" lon="6.57515">
        <ele>2251</ele>
        <time>2015-12-27T10:18:48Z</time>
      </trkpt>
      <trkpt lat="45.57933" lon="6.57529">
        <ele>2253.5</ele>
        <time>2015-12-27T10:19:04Z</time>
      </trkpt>
      <trkpt lat="45.57937" lon="6.5754">
        <ele>2256.4</ele>
        <time>2015-12-27T10:19:23Z</time>
      </trkpt>
      <trkpt lat="45.57946" lon="6.57544">
        <ele>2258.4</ele>
        <time>2015-12-27T10:19:38Z</time>
      </trkpt>
      <trkpt lat="45.57956" lon="6.57544">
        <ele>2260.2</ele>
        <time>2015-12-27T10:19:52Z</time>
      </trkpt>
      <trkpt lat="45.57965" lon="6.57545">
        <ele>2262.1</ele>
        <time>2015-12-27T10:20:06Z</time>
      </trkpt>
      <trkpt lat="45.57974" lon="6.57546">
        <ele>2265.3</ele>
        <time>2015-12-27T10:20:23Z</time>
      </trkpt>
      <trkpt lat="45.57983" lon="6.57553">
        <ele>2266.8</ele>
        <time>2015-12-27T10:20:38Z</time>
      </trkpt>
      <trkpt lat="45.57991" lon="6.57558">
        <ele>2268.2</ele>
        <time>2015-12-27T10:20:55Z</time>
      </trkpt>
      <trkpt lat="45.57999" lon="6.57567">
        <ele>2271.3</ele>
        <time>2015-12-27T10:22:02Z</time>
      </trkpt>
      <trkpt lat="45.58008" lon="6.57572">
        <ele>2271.6</ele>
        <time>2015-12-27T10:22:13Z</time>
      </trkpt>
      <trkpt lat="45.58018" lon="6.57574">
        <ele>2271.8</ele>
        <time>2015-12-27T10:22:21Z</time>
      </trkpt>
      <trkpt lat="45.58026" lon="6.5757">
        <ele>2271.8</ele>
        <time>2015-12-27T10:22:32Z</time>
      </trkpt>
      <trkpt lat="45.58036" lon="6.57567">
        <ele>2271.8</ele>
        <time>2015-12-27T10:22:46Z</time>
      </trkpt>
      <trkpt lat="45.58046" lon="6.57565">
        <ele>2272.1</ele>
        <time>2015-12-27T10:23:01Z</time>
      </trkpt>
      <trkpt lat="45.58055" lon="6.57563">
        <ele>2273.2</ele>
        <time>2015-12-27T10:23:15Z</time>
      </trkpt>
      <trkpt lat="45.58061" lon="6.57553">
        <ele>2274.4</ele>
        <time>2015-12-27T10:23:29Z</time>
      </trkpt>
      <trkpt lat="45.58062" lon="6.57539">
        <ele>2276.7</ele>
        <time>2015-12-27T10:23:44Z</time>
      </trkpt>
      <trkpt lat="45.58062" lon="6.57526">
        <ele>2279.4</ele>
        <time>2015-12-27T10:24:01Z</time>
      </trkpt>
      <trkpt lat="45.58065" lon="6.57513">
        <ele>2283.7</ele>
        <time>2015-12-27T10:24:19Z</time>
      </trkpt>
      <trkpt lat="45.58068" lon="6.57501">
        <ele>2287</ele>
        <time>2015-12-27T10:24:37Z</time>
      </trkpt>
      <trkpt lat="45.58073" lon="6.5749">
        <ele>2290.7</ele>
        <time>2015-12-27T10:24:53Z</time>
      </trkpt>
      <trkpt lat="45.58076" lon="6.57478">
        <ele>2292.7</ele>
        <time>2015-12-27T10:25:09Z</time>
      </trkpt>
      <trkpt lat="45.5808" lon="6.57466">
        <ele>2294.3</ele>
        <time>2015-12-27T10:25:23Z</time>
      </trkpt>
      <trkpt lat="45.58087" lon="6.57458">
        <ele>2301.5</ele>
        <time>2015-12-27T10:31:21Z</time>
      </trkpt>
      <trkpt lat="45.58096" lon="6.57457">
        <ele>2302.2</ele>
        <time>2015-12-27T10:31:36Z</time>
      </trkpt>
      <trkpt lat="45.58106" lon="6.57454">
        <ele>2304.4</ele>
        <time>2015-12-27T10:32:07Z</time>
      </trkpt>
      <trkpt lat="45.58114" lon="6.57451">
        <ele>2306.1</ele>
        <time>2015-12-27T10:32:25Z</time>
      </trkpt>
      <trkpt lat="45.58121" lon="6.57442">
        <ele>2309.2</ele>
        <time>2015-12-27T10:32:44Z</time>
      </trkpt>
      <trkpt lat="45.58128" lon="6.57434">
        <ele>2312.2</ele>
        <time>2015-12-27T10:33:02Z</time>
      </trkpt>
      <trkpt lat="45.58134" lon="6.57424">
        <ele>2316.3</ele>
        <time>2015-12-27T10:33:26Z</time>
      </trkpt>
      <trkpt lat="45.58139" lon="6.57414">
        <ele>2319.6</ele>
        <time>2015-12-27T10:33:46Z</time>
      </trkpt>
      <trkpt lat="45.58146" lon="6.57405">
        <ele>2323.6</ele>
        <time>2015-12-27T10:34:07Z</time>
      </trkpt>
      <trkpt lat="45.58143" lon="6.57392">
        <ele>2326.8</ele>
        <time>2015-12-27T10:34:28Z</time>
      </trkpt>
      <trkpt lat="45.58138" lon="6.57381">
        <ele>2328.8</ele>
        <time>2015-12-27T10:34:46Z</time>
      </trkpt>
      <trkpt lat="45.58133" lon="6.5737">
        <ele>2331.9</ele>
        <time>2015-12-27T10:35:06Z</time>
      </trkpt>
      <trkpt lat="45.58126" lon="6.57362">
        <ele>2334.3</ele>
        <time>2015-12-27T10:35:23Z</time>
      </trkpt>
      <trkpt lat="45.58121" lon="6.5735">
        <ele>2336.6</ele>
        <time>2015-12-27T10:35:42Z</time>
      </trkpt>
      <trkpt lat="45.58119" lon="6.57337">
        <ele>2340.6</ele>
        <time>2015-12-27T10:36:00Z</time>
      </trkpt>
      <trkpt lat="45.58117" lon="6.57324">
        <ele>2344.9</ele>
        <time>2015-12-27T10:36:35Z</time>
      </trkpt>
      <trkpt lat="45.58116" lon="6.5731">
        <ele>2347.8</ele>
        <time>2015-12-27T10:36:56Z</time>
      </trkpt>
      <trkpt lat="45.58125" lon="6.57307">
        <ele>2354.6</ele>
        <time>2015-12-27T10:38:42Z</time>
      </trkpt>
      <trkpt lat="45.58134" lon="6.57307">
        <ele>2359</ele>
        <time>2015-12-27T10:39:15Z</time>
      </trkpt>
      <trkpt lat="45.58143" lon="6.57307">
        <ele>2362.3</ele>
        <time>2015-12-27T10:40:53Z</time>
      </trkpt>
      <trkpt lat="45.58152" lon="6.57306">
        <ele>2365</ele>
        <time>2015-12-27T10:41:10Z</time>
      </trkpt>
      <trkpt lat="45.58162" lon="6.57306">
        <ele>2369.7</ele>
        <time>2015-12-27T10:41:35Z</time>
      </trkpt>
      <trkpt lat="45.5817" lon="6.57312">
        <ele>2373.3</ele>
        <time>2015-12-27T10:42:01Z</time>
      </trkpt>
      <trkpt lat="45.5818" lon="6.57314">
        <ele>2374.9</ele>
        <time>2015-12-27T10:42:25Z</time>
      </trkpt>
      <trkpt lat="45.58191" lon="6.57317">
        <ele>2376</ele>
        <time>2015-12-27T10:42:39Z</time>
      </trkpt>
      <trkpt lat="45.58201" lon="6.5732">
        <ele>2376.2</ele>
        <time>2015-12-27T10:42:43Z</time>
      </trkpt>
      <trkpt lat="45.58209" lon="6.57315">
        <ele>2376.2</ele>
        <time>2015-12-27T10:42:53Z</time>
      </trkpt>
      <trkpt lat="45.58218" lon="6.57308">
        <ele>2376</ele>
        <time>2015-12-27T10:43:06Z</time>
      </trkpt>
      <trkpt lat="45.58224" lon="6.57299">
        <ele>2376.1</ele>
        <time>2015-12-27T10:43:23Z</time>
      </trkpt>
      <trkpt lat="45.58231" lon="6.5729">
        <ele>2377.4</ele>
        <time>2015-12-27T10:43:38Z</time>
      </trkpt>
      <trkpt lat="45.5824" lon="6.5728">
        <ele>2380.5</ele>
        <time>2015-12-27T10:44:16Z</time>
      </trkpt>
      <trkpt lat="45.58249" lon="6.57277">
        <ele>2380.6</ele>
        <time>2015-12-27T10:44:21Z</time>
      </trkpt>
      <trkpt lat="45.58261" lon="6.57273">
        <ele>2380.7</ele>
        <time>2015-12-27T10:44:24Z</time>
      </trkpt>
      <trkpt lat="45.58271" lon="6.57269">
        <ele>2379.9</ele>
        <time>2015-12-27T10:44:32Z</time>
      </trkpt>
      <trkpt lat="45.5828" lon="6.57264">
        <ele>2378.9</ele>
        <time>2015-12-27T10:44:41Z</time>
      </trkpt>
      <trkpt lat="45.58289" lon="6.57259">
        <ele>2378.2</ele>
        <time>2015-12-27T10:44:53Z</time>
      </trkpt>
      <trkpt lat="45.58297" lon="6.57254">
        <ele>2377.9</ele>
        <time>2015-12-27T10:45:06Z</time>
      </trkpt>
      <trkpt lat="45.58306" lon="6.57248">
        <ele>2378.3</ele>
        <time>2015-12-27T10:45:21Z</time>
      </trkpt>
      <trkpt lat="45.58315" lon="6.57245">
        <ele>2379.9</ele>
        <time>2015-12-27T10:45:37Z</time>
      </trkpt>
      <trkpt lat="45.58325" lon="6.57243">
        <ele>2382</ele>
        <time>2015-12-27T10:45:53Z</time>
      </trkpt>
      <trkpt lat="45.58333" lon="6.57239">
        <ele>2386</ele>
        <time>2015-12-27T10:46:16Z</time>
      </trkpt>
      <trkpt lat="45.58342" lon="6.57242">
        <ele>2389.9</ele>
        <time>2015-12-27T10:46:37Z</time>
      </trkpt>
      <trkpt lat="45.58351" lon="6.57243">
        <ele>2394.5</ele>
        <time>2015-12-27T10:47:04Z</time>
      </trkpt>
      <trkpt lat="45.58358" lon="6.57235">
        <ele>2397.8</ele>
        <time>2015-12-27T10:47:22Z</time>
      </trkpt>
      <trkpt lat="45.58367" lon="6.57228">
        <ele>2401.7</ele>
        <time>2015-12-27T10:47:49Z</time>
      </trkpt>
      <trkpt lat="45.58376" lon="6.57226">
        <ele>2406.8</ele>
        <time>2015-12-27T10:48:26Z</time>
      </trkpt>
      <trkpt lat="45.58382" lon="6.57215">
        <ele>2409.3</ele>
        <time>2015-12-27T10:48:49Z</time>
      </trkpt>
      <trkpt lat="45.58392" lon="6.57214">
        <ele>2413.1</ele>
        <time>2015-12-27T10:49:10Z</time>
      </trkpt>
      <trkpt lat="45.584" lon="6.57208">
        <ele>2415.7</ele>
        <time>2015-12-27T10:49:26Z</time>
      </trkpt>
      <trkpt lat="45.58408" lon="6.572">
        <ele>2417.3</ele>
        <time>2015-12-27T10:49:39Z</time>
      </trkpt>
      <trkpt lat="45.58417" lon="6.57198">
        <ele>2418.7</ele>
        <time>2015-12-27T10:49:54Z</time>
      </trkpt>
      <trkpt lat="45.58426" lon="6.57194">
        <ele>2421</ele>
        <time>2015-12-27T10:50:11Z</time>
      </trkpt>
      <trkpt lat="45.58435" lon="6.57191">
        <ele>2423.5</ele>
        <time>2015-12-27T10:50:34Z</time>
      </trkpt>
      <trkpt lat="45.58444" lon="6.57192">
        <ele>2425.4</ele>
        <time>2015-12-27T10:50:54Z</time>
      </trkpt>
      <trkpt lat="45.58451" lon="6.57183">
        <ele>2427.6</ele>
        <time>2015-12-27T10:51:12Z</time>
      </trkpt>
      <trkpt lat="45.5846" lon="6.57179">
        <ele>2431.3</ele>
        <time>2015-12-27T10:51:31Z</time>
      </trkpt>
      <trkpt lat="45.58469" lon="6.57173">
        <ele>2437.8</ele>
        <time>2015-12-27T10:52:25Z</time>
      </trkpt>
      <trkpt lat="45.58474" lon="6.57163">
        <ele>2438.7</ele>
        <time>2015-12-27T10:52:46Z</time>
      </trkpt>
      <trkpt lat="45.58481" lon="6.57153">
        <ele>2441.8</ele>
        <time>2015-12-27T10:53:14Z</time>
      </trkpt>
      <trkpt lat="45.58488" lon="6.57146">
        <ele>2445.7</ele>
        <time>2015-12-27T10:53:34Z</time>
      </trkpt>
      <trkpt lat="45.58497" lon="6.57145">
        <ele>2449.9</ele>
        <time>2015-12-27T10:54:05Z</time>
      </trkpt>
      <trkpt lat="45.58505" lon="6.57138">
        <ele>2454.1</ele>
        <time>2015-12-27T10:56:18Z</time>
      </trkpt>
      <trkpt lat="45.58513" lon="6.57133">
        <ele>2461.1</ele>
        <time>2015-12-27T11:14:51Z</time>
      </trkpt>
      <trkpt lat="45.58521" lon="6.57142">
        <ele>2458.5</ele>
        <time>2015-12-27T11:16:29Z</time>
      </trkpt>
      <trkpt lat="45.58514" lon="6.57152">
        <ele>2457.9</ele>
        <time>2015-12-27T11:16:33Z</time>
      </trkpt>
      <trkpt lat="45.58517" lon="6.57164">
        <ele>2454.6</ele>
        <time>2015-12-27T11:16:43Z</time>
      </trkpt>
      <trkpt lat="45.58516" lon="6.57179">
        <ele>2450</ele>
        <time>2015-12-27T11:16:53Z</time>
      </trkpt>
      <trkpt lat="45.58515" lon="6.57197">
        <ele>2448.7</ele>
        <time>2015-12-27T11:16:56Z</time>
      </trkpt>
      <trkpt lat="45.58518" lon="6.57215">
        <ele>2446.9</ele>
        <time>2015-12-27T11:16:59Z</time>
      </trkpt>
      <trkpt lat="45.58523" lon="6.57227">
        <ele>2444.5</ele>
        <time>2015-12-27T11:17:02Z</time>
      </trkpt>
      <trkpt lat="45.58524" lon="6.57241">
        <ele>2438.1</ele>
        <time>2015-12-27T11:17:09Z</time>
      </trkpt>
      <trkpt lat="45.58525" lon="6.57257">
        <ele>2435.4</ele>
        <time>2015-12-27T11:17:12Z</time>
      </trkpt>
      <trkpt lat="45.5853" lon="6.57268">
        <ele>2432.5</ele>
        <time>2015-12-27T11:17:15Z</time>
      </trkpt>
      <trkpt lat="45.58526" lon="6.57287">
        <ele>2427.6</ele>
        <time>2015-12-27T11:17:19Z</time>
      </trkpt>
      <trkpt lat="45.58524" lon="6.57304">
        <ele>2423.2</ele>
        <time>2015-12-27T11:17:22Z</time>
      </trkpt>
      <trkpt lat="45.58524" lon="6.57318">
        <ele>2416.8</ele>
        <time>2015-12-27T11:17:26Z</time>
      </trkpt>
      <trkpt lat="45.58521" lon="6.57333">
        <ele>2411.8</ele>
        <time>2015-12-27T11:17:29Z</time>
      </trkpt>
      <trkpt lat="45.58521" lon="6.57347">
        <ele>2406.2</ele>
        <time>2015-12-27T11:17:32Z</time>
      </trkpt>
      <trkpt lat="45.5852" lon="6.57365">
        <ele>2400.3</ele>
        <time>2015-12-27T11:17:35Z</time>
      </trkpt>
      <trkpt lat="45.58521" lon="6.57385">
        <ele>2394.4</ele>
        <time>2015-12-27T11:17:38Z</time>
      </trkpt>
      <trkpt lat="45.58522" lon="6.57404">
        <ele>2386.1</ele>
        <time>2015-12-27T11:17:42Z</time>
      </trkpt>
      <trkpt lat="45.58521" lon="6.5742">
        <ele>2382.2</ele>
        <time>2015-12-27T11:17:44Z</time>
      </trkpt>
      <trkpt lat="45.58523" lon="6.57436">
        <ele>2376.6</ele>
        <time>2015-12-27T11:17:47Z</time>
      </trkpt>
      <trkpt lat="45.58522" lon="6.5745">
        <ele>2371.3</ele>
        <time>2015-12-27T11:17:50Z</time>
      </trkpt>
      <trkpt lat="45.58524" lon="6.57464">
        <ele>2357</ele>
        <time>2015-12-27T11:18:00Z</time>
      </trkpt>
      <trkpt lat="45.58532" lon="6.57475">
        <ele>2353.8</ele>
        <time>2015-12-27T11:18:03Z</time>
      </trkpt>
      <trkpt lat="45.58544" lon="6.57485">
        <ele>2351.1</ele>
        <time>2015-12-27T11:18:06Z</time>
      </trkpt>
      <trkpt lat="45.58543" lon="6.57504">
        <ele>2348.5</ele>
        <time>2015-12-27T11:18:09Z</time>
      </trkpt>
      <trkpt lat="45.58551" lon="6.57517">
        <ele>2345.8</ele>
        <time>2015-12-27T11:18:12Z</time>
      </trkpt>
      <trkpt lat="45.58562" lon="6.57521">
        <ele>2342.8</ele>
        <time>2015-12-27T11:18:15Z</time>
      </trkpt>
      <trkpt lat="45.58569" lon="6.5753">
        <ele>2340.9</ele>
        <time>2015-12-27T11:18:17Z</time>
      </trkpt>
      <trkpt lat="45.58573" lon="6.57543">
        <ele>2338.7</ele>
        <time>2015-12-27T11:18:19Z</time>
      </trkpt>
      <trkpt lat="45.58581" lon="6.57555">
        <ele>2335.7</ele>
        <time>2015-12-27T11:18:22Z</time>
      </trkpt>
      <trkpt lat="45.58587" lon="6.57568">
        <ele>2333.6</ele>
        <time>2015-12-27T11:18:24Z</time>
      </trkpt>
      <trkpt lat="45.58589" lon="6.57587">
        <ele>2330.1</ele>
        <time>2015-12-27T11:18:27Z</time>
      </trkpt>
      <trkpt lat="45.5859" lon="6.576">
        <ele>2327.8</ele>
        <time>2015-12-27T11:18:29Z</time>
      </trkpt>
      <trkpt lat="45.58588" lon="6.57612">
        <ele>2325.6</ele>
        <time>2015-12-27T11:18:31Z</time>
      </trkpt>
      <trkpt lat="45.58594" lon="6.57628">
        <ele>2322.2</ele>
        <time>2015-12-27T11:18:34Z</time>
      </trkpt>
      <trkpt lat="45.58603" lon="6.57639">
        <ele>2318.6</ele>
        <time>2015-12-27T11:18:37Z</time>
      </trkpt>
      <trkpt lat="45.58603" lon="6.57653">
        <ele>2315.3</ele>
        <time>2015-12-27T11:18:40Z</time>
      </trkpt>
      <trkpt lat="45.58613" lon="6.57667">
        <ele>2311.9</ele>
        <time>2015-12-27T11:18:43Z</time>
      </trkpt>
      <trkpt lat="45.58615" lon="6.57682">
        <ele>2308.3</ele>
        <time>2015-12-27T11:18:46Z</time>
      </trkpt>
      <trkpt lat="45.58617" lon="6.57697">
        <ele>2304.8</ele>
        <time>2015-12-27T11:18:49Z</time>
      </trkpt>
      <trkpt lat="45.58615" lon="6.5771">
        <ele>2301.3</ele>
        <time>2015-12-27T11:18:52Z</time>
      </trkpt>
      <trkpt lat="45.58613" lon="6.57723">
        <ele>2298.9</ele>
        <time>2015-12-27T11:18:54Z</time>
      </trkpt>
      <trkpt lat="45.58606" lon="6.57732">
        <ele>2296.6</ele>
        <time>2015-12-27T11:18:56Z</time>
      </trkpt>
      <trkpt lat="45.58613" lon="6.57747">
        <ele>2291.9</ele>
        <time>2015-12-27T11:19:00Z</time>
      </trkpt>
      <trkpt lat="45.58606" lon="6.57756">
        <ele>2283</ele>
        <time>2015-12-27T11:19:09Z</time>
      </trkpt>
      <trkpt lat="45.58598" lon="6.57762">
        <ele>2278.5</ele>
        <time>2015-12-27T11:19:15Z</time>
      </trkpt>
      <trkpt lat="45.58594" lon="6.57774">
        <ele>2271.2</ele>
        <time>2015-12-27T11:19:29Z</time>
      </trkpt>
      <trkpt lat="45.58593" lon="6.57794">
        <ele>2268.5</ele>
        <time>2015-12-27T11:19:35Z</time>
      </trkpt>
      <trkpt lat="45.58582" lon="6.578">
        <ele>2267.5</ele>
        <time>2015-12-27T11:19:37Z</time>
      </trkpt>
      <trkpt lat="45.58575" lon="6.57811">
        <ele>2266.2</ele>
        <time>2015-12-27T11:19:39Z</time>
      </trkpt>
      <trkpt lat="45.58568" lon="6.57821">
        <ele>2264.7</ele>
        <time>2015-12-27T11:19:41Z</time>
      </trkpt>
      <trkpt lat="45.5856" lon="6.57831">
        <ele>2262.8</ele>
        <time>2015-12-27T11:19:43Z</time>
      </trkpt>
      <trkpt lat="45.5855" lon="6.57838">
        <ele>2260.1</ele>
        <time>2015-12-27T11:19:46Z</time>
      </trkpt>
      <trkpt lat="45.58548" lon="6.57853">
        <ele>2257.8</ele>
        <time>2015-12-27T11:19:49Z</time>
      </trkpt>
      <trkpt lat="45.58545" lon="6.57868">
        <ele>2255</ele>
        <time>2015-12-27T11:19:52Z</time>
      </trkpt>
      <trkpt lat="45.58538" lon="6.57882">
        <ele>2252.1</ele>
        <time>2015-12-27T11:19:55Z</time>
      </trkpt>
      <trkpt lat="45.58539" lon="6.57899">
        <ele>2248.8</ele>
        <time>2015-12-27T11:19:58Z</time>
      </trkpt>
      <trkpt lat="45.58545" lon="6.57913">
        <ele>2245.5</ele>
        <time>2015-12-27T11:20:01Z</time>
      </trkpt>
      <trkpt lat="45.58543" lon="6.57926">
        <ele>2242.4</ele>
        <time>2015-12-27T11:20:04Z</time>
      </trkpt>
      <trkpt lat="45.58539" lon="6.57942">
        <ele>2238.3</ele>
        <time>2015-12-27T11:20:08Z</time>
      </trkpt>
      <trkpt lat="45.58538" lon="6.57958">
        <ele>2235.2</ele>
        <time>2015-12-27T11:20:11Z</time>
      </trkpt>
      <trkpt lat="45.58533" lon="6.57971">
        <ele>2232</ele>
        <time>2015-12-27T11:20:14Z</time>
      </trkpt>
      <trkpt lat="45.58528" lon="6.57984">
        <ele>2228.5</ele>
        <time>2015-12-27T11:20:17Z</time>
      </trkpt>
      <trkpt lat="45.58522" lon="6.57995">
        <ele>2203.1</ele>
        <time>2015-12-27T11:21:13Z</time>
      </trkpt>
      <trkpt lat="45.58511" lon="6.57991">
        <ele>2202.1</ele>
        <time>2015-12-27T11:21:30Z</time>
      </trkpt>
      <trkpt lat="45.58499" lon="6.57984">
        <ele>2201.9</ele>
        <time>2015-12-27T11:21:33Z</time>
      </trkpt>
      <trkpt lat="45.5849" lon="6.57978">
        <ele>2201.8</ele>
        <time>2015-12-27T11:21:35Z</time>
      </trkpt>
      <trkpt lat="45.58481" lon="6.57973">
        <ele>2201.5</ele>
        <time>2015-12-27T11:21:37Z</time>
      </trkpt>
      <trkpt lat="45.5847" lon="6.57968">
        <ele>2201.2</ele>
        <time>2015-12-27T11:21:39Z</time>
      </trkpt>
      <trkpt lat="45.5846" lon="6.57963">
        <ele>2200.6</ele>
        <time>2015-12-27T11:21:42Z</time>
      </trkpt>
      <trkpt lat="45.58449" lon="6.57965">
        <ele>2199.1</ele>
        <time>2015-12-27T11:21:49Z</time>
      </trkpt>
      <trkpt lat="45.58439" lon="6.57963">
        <ele>2197.9</ele>
        <time>2015-12-27T11:21:55Z</time>
      </trkpt>
      <trkpt lat="45.5843" lon="6.57959">
        <ele>2197.3</ele>
        <time>2015-12-27T11:21:59Z</time>
      </trkpt>
      <trkpt lat="45.58421" lon="6.57948">
        <ele>2196.9</ele>
        <time>2015-12-27T11:22:02Z</time>
      </trkpt>
      <trkpt lat="45.58414" lon="6.57939">
        <ele>2196.4</ele>
        <time>2015-12-27T11:22:05Z</time>
      </trkpt>
      <trkpt lat="45.58405" lon="6.57927">
        <ele>2195.8</ele>
        <time>2015-12-27T11:22:09Z</time>
      </trkpt>
      <trkpt lat="45.58398" lon="6.5792">
        <ele>2193.8</ele>
        <time>2015-12-27T11:22:19Z</time>
      </trkpt>
      <trkpt lat="45.58388" lon="6.57923">
        <ele>2192.7</ele>
        <time>2015-12-27T11:22:25Z</time>
      </trkpt>
      <trkpt lat="45.58379" lon="6.57925">
        <ele>2191.6</ele>
        <time>2015-12-27T11:22:30Z</time>
      </trkpt>
      <trkpt lat="45.58369" lon="6.57926">
        <ele>2190.6</ele>
        <time>2015-12-27T11:22:34Z</time>
      </trkpt>
      <trkpt lat="45.58357" lon="6.57926">
        <ele>2189.4</ele>
        <time>2015-12-27T11:22:38Z</time>
      </trkpt>
      <trkpt lat="45.58348" lon="6.57931">
        <ele>2188.4</ele>
        <time>2015-12-27T11:22:41Z</time>
      </trkpt>
      <trkpt lat="45.58349" lon="6.57944">
        <ele>2186</ele>
        <time>2015-12-27T11:22:47Z</time>
      </trkpt>
      <trkpt lat="45.58342" lon="6.57959">
        <ele>2184.6</ele>
        <time>2015-12-27T11:22:50Z</time>
      </trkpt>
      <trkpt lat="45.58338" lon="6.57973">
        <ele>2183</ele>
        <time>2015-12-27T11:22:53Z</time>
      </trkpt>
      <trkpt lat="45.58333" lon="6.57989">
        <ele>2181.3</ele>
        <time>2015-12-27T11:22:56Z</time>
      </trkpt>
      <trkpt lat="45.58328" lon="6.58003">
        <ele>2179.6</ele>
        <time>2015-12-27T11:22:59Z</time>
      </trkpt>
      <trkpt lat="45.58323" lon="6.58016">
        <ele>2177.6</ele>
        <time>2015-12-27T11:23:02Z</time>
      </trkpt>
      <trkpt lat="45.5832" lon="6.58032">
        <ele>2175.7</ele>
        <time>2015-12-27T11:23:05Z</time>
      </trkpt>
      <trkpt lat="45.5832" lon="6.5805">
        <ele>2173.8</ele>
        <time>2015-12-27T11:23:08Z</time>
      </trkpt>
      <trkpt lat="45.58321" lon="6.58064">
        <ele>2171.7</ele>
        <time>2015-12-27T11:23:11Z</time>
      </trkpt>
      <trkpt lat="45.58333" lon="6.58064">
        <ele>2169.2</ele>
        <time>2015-12-27T11:23:15Z</time>
      </trkpt>
      <trkpt lat="45.58346" lon="6.58068">
        <ele>2166.9</ele>
        <time>2015-12-27T11:23:18Z</time>
      </trkpt>
      <trkpt lat="45.58355" lon="6.58069">
        <ele>2165.2</ele>
        <time>2015-12-27T11:23:20Z</time>
      </trkpt>
      <trkpt lat="45.58363" lon="6.58074">
        <ele>2163.4</ele>
        <time>2015-12-27T11:23:22Z</time>
      </trkpt>
      <trkpt lat="45.58373" lon="6.58082">
        <ele>2161.7</ele>
        <time>2015-12-27T11:23:24Z</time>
      </trkpt>
      <trkpt lat="45.5838" lon="6.58094">
        <ele>2159.2</ele>
        <time>2015-12-27T11:23:27Z</time>
      </trkpt>
      <trkpt lat="45.58386" lon="6.58112">
        <ele>2156.8</ele>
        <time>2015-12-27T11:23:30Z</time>
      </trkpt>
      <trkpt lat="45.58387" lon="6.58125">
        <ele>2155.3</ele>
        <time>2015-12-27T11:23:32Z</time>
      </trkpt>
      <trkpt lat="45.58383" lon="6.58139">
        <ele>2153.3</ele>
        <time>2015-12-27T11:23:35Z</time>
      </trkpt>
      <trkpt lat="45.58375" lon="6.58149">
        <ele>2151.8</ele>
        <time>2015-12-27T11:23:37Z</time>
      </trkpt>
      <trkpt lat="45.58368" lon="6.58158">
        <ele>2150.3</ele>
        <time>2015-12-27T11:23:39Z</time>
      </trkpt>
      <trkpt lat="45.58362" lon="6.5817">
        <ele>2148.1</ele>
        <time>2015-12-27T11:23:42Z</time>
      </trkpt>
      <trkpt lat="45.58353" lon="6.58183">
        <ele>2146</ele>
        <time>2015-12-27T11:23:45Z</time>
      </trkpt>
      <trkpt lat="45.58346" lon="6.58191">
        <ele>2144.7</ele>
        <time>2015-12-27T11:23:47Z</time>
      </trkpt>
      <trkpt lat="45.58337" lon="6.58202">
        <ele>2143.4</ele>
        <time>2015-12-27T11:23:49Z</time>
      </trkpt>
      <trkpt lat="45.58332" lon="6.58217">
        <ele>2142.2</ele>
        <time>2015-12-27T11:23:51Z</time>
      </trkpt>
      <trkpt lat="45.58327" lon="6.58233">
        <ele>2140.1</ele>
        <time>2015-12-27T11:23:54Z</time>
      </trkpt>
      <trkpt lat="45.58315" lon="6.58241">
        <ele>2138.2</ele>
        <time>2015-12-27T11:23:57Z</time>
      </trkpt>
      <trkpt lat="45.58303" lon="6.58245">
        <ele>2135.6</ele>
        <time>2015-12-27T11:24:01Z</time>
      </trkpt>
      <trkpt lat="45.58294" lon="6.5824">
        <ele>2125</ele>
        <time>2015-12-27T11:32:02Z</time>
      </trkpt>
      <trkpt lat="45.58285" lon="6.58243">
        <ele>2125.8</ele>
        <time>2015-12-27T11:32:14Z</time>
      </trkpt>
      <trkpt lat="45.58277" lon="6.58249">
        <ele>2128</ele>
        <time>2015-12-27T11:32:37Z</time>
      </trkpt>
      <trkpt lat="45.58268" lon="6.58255">
        <ele>2128.8</ele>
        <time>2015-12-27T11:32:49Z</time>
      </trkpt>
      <trkpt lat="45.58259" lon="6.58262">
        <ele>2129.9</ele>
        <time>2015-12-27T11:33:00Z</time>
      </trkpt>
      <trkpt lat="45.58251" lon="6.58269">
        <ele>2131.1</ele>
        <time>2015-12-27T11:33:10Z</time>
      </trkpt>
      <trkpt lat="45.58243" lon="6.58277">
        <ele>2132.2</ele>
        <time>2015-12-27T11:33:20Z</time>
      </trkpt>
      <trkpt lat="45.58237" lon="6.58285">
        <ele>2133.2</ele>
        <time>2015-12-27T11:33:34Z</time>
      </trkpt>
      <trkpt lat="45.58232" lon="6.58297">
        <ele>2134.1</ele>
        <time>2015-12-27T11:33:46Z</time>
      </trkpt>
      <trkpt lat="45.58227" lon="6.58308">
        <ele>2135</ele>
        <time>2015-12-27T11:33:59Z</time>
      </trkpt>
      <trkpt lat="45.58223" lon="6.5832">
        <ele>2136.4</ele>
        <time>2015-12-27T11:34:13Z</time>
      </trkpt>
      <trkpt lat="45.5822" lon="6.58332">
        <ele>2137.7</ele>
        <time>2015-12-27T11:34:26Z</time>
      </trkpt>
      <trkpt lat="45.58215" lon="6.58344">
        <ele>2139.4</ele>
        <time>2015-12-27T11:34:41Z</time>
      </trkpt>
      <trkpt lat="45.58209" lon="6.58353">
        <ele>2141.7</ele>
        <time>2015-12-27T11:35:07Z</time>
      </trkpt>
      <trkpt lat="45.58199" lon="6.58352">
        <ele>2144.3</ele>
        <time>2015-12-27T11:35:28Z</time>
      </trkpt>
      <trkpt lat="45.58191" lon="6.58355">
        <ele>2146.5</ele>
        <time>2015-12-27T11:35:44Z</time>
      </trkpt>
      <trkpt lat="45.58182" lon="6.58357">
        <ele>2148.2</ele>
        <time>2015-12-27T11:35:58Z</time>
      </trkpt>
      <trkpt lat="45.58172" lon="6.58356">
        <ele>2150.2</ele>
        <time>2015-12-27T11:36:15Z</time>
      </trkpt>
      <trkpt lat="45.58163" lon="6.58356">
        <ele>2151.9</ele>
        <time>2015-12-27T11:36:30Z</time>
      </trkpt>
      <trkpt lat="45.58154" lon="6.58359">
        <ele>2154.2</ele>
        <time>2015-12-27T11:36:45Z</time>
      </trkpt>
      <trkpt lat="45.58145" lon="6.58362">
        <ele>2155.4</ele>
        <time>2015-12-27T11:36:58Z</time>
      </trkpt>
      <trkpt lat="45.58136" lon="6.58366">
        <ele>2156.8</ele>
        <time>2015-12-27T11:37:12Z</time>
      </trkpt>
      <trkpt lat="45.58128" lon="6.58369">
        <ele>2157.9</ele>
        <time>2015-12-27T11:37:25Z</time>
      </trkpt>
      <trkpt lat="45.58119" lon="6.58374">
        <ele>2159.6</ele>
        <time>2015-12-27T11:37:39Z</time>
      </trkpt>
      <trkpt lat="45.58111" lon="6.58381">
        <ele>2160.7</ele>
        <time>2015-12-27T11:37:47Z</time>
      </trkpt>
      <trkpt lat="45.58102" lon="6.58384">
        <ele>2161.8</ele>
        <time>2015-12-27T11:38:01Z</time>
      </trkpt>
      <trkpt lat="45.58092" lon="6.58387">
        <ele>2162.9</ele>
        <time>2015-12-27T11:38:17Z</time>
      </trkpt>
      <trkpt lat="45.58086" lon="6.58396">
        <ele>2164</ele>
        <time>2015-12-27T11:38:29Z</time>
      </trkpt>
      <trkpt lat="45.5808" lon="6.58407">
        <ele>2164.9</ele>
        <time>2015-12-27T11:38:35Z</time>
      </trkpt>
      <trkpt lat="45.58072" lon="6.58412">
        <ele>2166.4</ele>
        <time>2015-12-27T11:38:57Z</time>
      </trkpt>
      <trkpt lat="45.58063" lon="6.58408">
        <ele>2167.6</ele>
        <time>2015-12-27T11:39:13Z</time>
      </trkpt>
      <trkpt lat="45.58053" lon="6.5841">
        <ele>2169</ele>
        <time>2015-12-27T11:39:27Z</time>
      </trkpt>
      <trkpt lat="45.58044" lon="6.58415">
        <ele>2170.2</ele>
        <time>2015-12-27T11:39:38Z</time>
      </trkpt>
      <trkpt lat="45.58035" lon="6.58419">
        <ele>2171.2</ele>
        <time>2015-12-27T11:39:49Z</time>
      </trkpt>
      <trkpt lat="45.58026" lon="6.58423">
        <ele>2171.7</ele>
        <time>2015-12-27T11:39:59Z</time>
      </trkpt>
      <trkpt lat="45.58017" lon="6.58424">
        <ele>2172.2</ele>
        <time>2015-12-27T11:40:12Z</time>
      </trkpt>
      <trkpt lat="45.58008" lon="6.58419">
        <ele>2173.3</ele>
        <time>2015-12-27T11:40:25Z</time>
      </trkpt>
      <trkpt lat="45.58" lon="6.58415">
        <ele>2174</ele>
        <time>2015-12-27T11:40:35Z</time>
      </trkpt>
      <trkpt lat="45.57991" lon="6.5841">
        <ele>2174.8</ele>
        <time>2015-12-27T11:40:47Z</time>
      </trkpt>
      <trkpt lat="45.57981" lon="6.58411">
        <ele>2175.4</ele>
        <time>2015-12-27T11:41:00Z</time>
      </trkpt>
      <trkpt lat="45.57974" lon="6.58419">
        <ele>2177.2</ele>
        <time>2015-12-27T11:41:24Z</time>
      </trkpt>
      <trkpt lat="45.57965" lon="6.58423">
        <ele>2177.7</ele>
        <time>2015-12-27T11:41:36Z</time>
      </trkpt>
      <trkpt lat="45.57957" lon="6.58431">
        <ele>2178.3</ele>
        <time>2015-12-27T11:41:50Z</time>
      </trkpt>
      <trkpt lat="45.57949" lon="6.58438">
        <ele>2179.5</ele>
        <time>2015-12-27T11:42:05Z</time>
      </trkpt>
      <trkpt lat="45.5794" lon="6.58441">
        <ele>2181.7</ele>
        <time>2015-12-27T11:42:23Z</time>
      </trkpt>
      <trkpt lat="45.57936" lon="6.58428">
        <ele>2184.2</ele>
        <time>2015-12-27T11:42:42Z</time>
      </trkpt>
      <trkpt lat="45.57939" lon="6.58415">
        <ele>2187.7</ele>
        <time>2015-12-27T11:43:11Z</time>
      </trkpt>
      <trkpt lat="45.57938" lon="6.58402">
        <ele>2189.8</ele>
        <time>2015-12-27T11:43:43Z</time>
      </trkpt>
      <trkpt lat="45.57929" lon="6.58403">
        <ele>2192.1</ele>
        <time>2015-12-27T11:44:01Z</time>
      </trkpt>
      <trkpt lat="45.5792" lon="6.58407">
        <ele>2194.8</ele>
        <time>2015-12-27T11:44:21Z</time>
      </trkpt>
      <trkpt lat="45.57913" lon="6.58398">
        <ele>2199.1</ele>
        <time>2015-12-27T11:44:56Z</time>
      </trkpt>
      <trkpt lat="45.57908" lon="6.58385">
        <ele>2202.8</ele>
        <time>2015-12-27T11:46:25Z</time>
      </trkpt>
      <trkpt lat="45.5791" lon="6.58372">
        <ele>2203.5</ele>
        <time>2015-12-27T11:46:46Z</time>
      </trkpt>
      <trkpt lat="45.57909" lon="6.58359">
        <ele>2205.4</ele>
        <time>2015-12-27T11:47:01Z</time>
      </trkpt>
      <trkpt lat="45.57907" lon="6.58345">
        <ele>2207.1</ele>
        <time>2015-12-27T11:47:16Z</time>
      </trkpt>
      <trkpt lat="45.5791" lon="6.58332">
        <ele>2208.1</ele>
        <time>2015-12-27T11:47:29Z</time>
      </trkpt>
      <trkpt lat="45.57909" lon="6.58319">
        <ele>2209.2</ele>
        <time>2015-12-27T11:47:41Z</time>
      </trkpt>
      <trkpt lat="45.57907" lon="6.58305">
        <ele>2211.2</ele>
        <time>2015-12-27T11:48:00Z</time>
      </trkpt>
      <trkpt lat="45.57908" lon="6.58292">
        <ele>2213.3</ele>
        <time>2015-12-27T11:48:16Z</time>
      </trkpt>
      <trkpt lat="45.57905" lon="6.58279">
        <ele>2214.7</ele>
        <time>2015-12-27T11:48:32Z</time>
      </trkpt>
      <trkpt lat="45.57901" lon="6.58267">
        <ele>2216.3</ele>
        <time>2015-12-27T11:48:46Z</time>
      </trkpt>
      <trkpt lat="45.57896" lon="6.58256">
        <ele>2218.1</ele>
        <time>2015-12-27T11:49:04Z</time>
      </trkpt>
      <trkpt lat="45.5789" lon="6.58245">
        <ele>2221.2</ele>
        <time>2015-12-27T11:49:21Z</time>
      </trkpt>
      <trkpt lat="45.57885" lon="6.58234">
        <ele>2223.6</ele>
        <time>2015-12-27T11:49:40Z</time>
      </trkpt>
      <trkpt lat="45.5788" lon="6.58223">
        <ele>2225.8</ele>
        <time>2015-12-27T11:49:57Z</time>
      </trkpt>
      <trkpt lat="45.57874" lon="6.58213">
        <ele>2228</ele>
        <time>2015-12-27T11:50:15Z</time>
      </trkpt>
      <trkpt lat="45.57868" lon="6.58202">
        <ele>2230</ele>
        <time>2015-12-27T11:50:31Z</time>
      </trkpt>
      <trkpt lat="45.57862" lon="6.58192">
        <ele>2231.5</ele>
        <time>2015-12-27T11:50:47Z</time>
      </trkpt>
      <trkpt lat="45.57855" lon="6.58184">
        <ele>2233.1</ele>
        <time>2015-12-27T11:51:02Z</time>
      </trkpt>
      <trkpt lat="45.57847" lon="6.58177">
        <ele>2234.9</ele>
        <time>2015-12-27T11:51:20Z</time>
      </trkpt>
      <trkpt lat="45.57842" lon="6.58166">
        <ele>2236.4</ele>
        <time>2015-12-27T11:51:33Z</time>
      </trkpt>
      <trkpt lat="45.57837" lon="6.58155">
        <ele>2238.2</ele>
        <time>2015-12-27T11:51:46Z</time>
      </trkpt>
      <trkpt lat="45.5783" lon="6.58147">
        <ele>2240.5</ele>
        <time>2015-12-27T11:52:06Z</time>
      </trkpt>
      <trkpt lat="45.57821" lon="6.58145">
        <ele>2243.5</ele>
        <time>2015-12-27T11:52:26Z</time>
      </trkpt>
      <trkpt lat="45.57814" lon="6.58154">
        <ele>2246</ele>
        <time>2015-12-27T11:52:49Z</time>
      </trkpt>
      <trkpt lat="45.57808" lon="6.58164">
        <ele>2247.3</ele>
        <time>2015-12-27T11:53:03Z</time>
      </trkpt>
      <trkpt lat="45.57803" lon="6.58175">
        <ele>2249.6</ele>
        <time>2015-12-27T11:53:24Z</time>
      </trkpt>
      <trkpt lat="45.57797" lon="6.58186">
        <ele>2251.5</ele>
        <time>2015-12-27T11:53:40Z</time>
      </trkpt>
      <trkpt lat="45.57791" lon="6.58196">
        <ele>2253.7</ele>
        <time>2015-12-27T11:53:58Z</time>
      </trkpt>
      <trkpt lat="45.57785" lon="6.58206">
        <ele>2255.9</ele>
        <time>2015-12-27T11:54:13Z</time>
      </trkpt>
      <trkpt lat="45.57779" lon="6.58216">
        <ele>2258</ele>
        <time>2015-12-27T11:54:43Z</time>
      </trkpt>
      <trkpt lat="45.57773" lon="6.58227">
        <ele>2259</ele>
        <time>2015-12-27T11:54:56Z</time>
      </trkpt>
      <trkpt lat="45.57769" lon="6.5824">
        <ele>2260.2</ele>
        <time>2015-12-27T11:55:10Z</time>
      </trkpt>
      <trkpt lat="45.57771" lon="6.58253">
        <ele>2264.8</ele>
        <time>2015-12-27T11:55:38Z</time>
      </trkpt>
      <trkpt lat="45.57772" lon="6.58267">
        <ele>2266.6</ele>
        <time>2015-12-27T11:55:54Z</time>
      </trkpt>
      <trkpt lat="45.57769" lon="6.58279">
        <ele>2267.8</ele>
        <time>2015-12-27T11:56:06Z</time>
      </trkpt>
      <trkpt lat="45.57773" lon="6.58292">
        <ele>2269.9</ele>
        <time>2015-12-27T11:56:24Z</time>
      </trkpt>
      <trkpt lat="45.57779" lon="6.58302">
        <ele>2272.3</ele>
        <time>2015-12-27T11:56:42Z</time>
      </trkpt>
      <trkpt lat="45.57779" lon="6.58315">
        <ele>2274.9</ele>
        <time>2015-12-27T11:57:00Z</time>
      </trkpt>
      <trkpt lat="45.57771" lon="6.5831">
        <ele>2277.8</ele>
        <time>2015-12-27T11:57:25Z</time>
      </trkpt>
      <trkpt lat="45.57762" lon="6.58316">
        <ele>2279.3</ele>
        <time>2015-12-27T11:57:38Z</time>
      </trkpt>
      <trkpt lat="45.57754" lon="6.58321">
        <ele>2280.7</ele>
        <time>2015-12-27T11:57:54Z</time>
      </trkpt>
      <trkpt lat="45.57745" lon="6.58323">
        <ele>2283.3</ele>
        <time>2015-12-27T11:58:12Z</time>
      </trkpt>
      <trkpt lat="45.57736" lon="6.58326">
        <ele>2285.2</ele>
        <time>2015-12-27T11:58:28Z</time>
      </trkpt>
      <trkpt lat="45.57727" lon="6.58333">
        <ele>2287.2</ele>
        <time>2015-12-27T11:58:45Z</time>
      </trkpt>
      <trkpt lat="45.57732" lon="6.58344">
        <ele>2291.4</ele>
        <time>2015-12-27T11:59:26Z</time>
      </trkpt>
      <trkpt lat="45.5774" lon="6.5835">
        <ele>2293.3</ele>
        <time>2015-12-27T11:59:44Z</time>
      </trkpt>
      <trkpt lat="45.57744" lon="6.58363">
        <ele>2296.4</ele>
        <time>2015-12-27T12:00:03Z</time>
      </trkpt>
      <trkpt lat="45.57738" lon="6.58373">
        <ele>2298.9</ele>
        <time>2015-12-27T12:00:31Z</time>
      </trkpt>
      <trkpt lat="45.57729" lon="6.58372">
        <ele>2300</ele>
        <time>2015-12-27T12:00:44Z</time>
      </trkpt>
      <trkpt lat="45.5772" lon="6.5837">
        <ele>2301.4</ele>
        <time>2015-12-27T12:00:58Z</time>
      </trkpt>
      <trkpt lat="45.57714" lon="6.58379">
        <ele>2304.7</ele>
        <time>2015-12-27T12:01:27Z</time>
      </trkpt>
      <trkpt lat="45.57706" lon="6.58386">
        <ele>2306.8</ele>
        <time>2015-12-27T12:01:46Z</time>
      </trkpt>
      <trkpt lat="45.57697" lon="6.58387">
        <ele>2307.7</ele>
        <time>2015-12-27T12:01:59Z</time>
      </trkpt>
      <trkpt lat="45.57691" lon="6.58398">
        <ele>2309.4</ele>
        <time>2015-12-27T12:02:13Z</time>
      </trkpt>
      <trkpt lat="45.57684" lon="6.58406">
        <ele>2310.3</ele>
        <time>2015-12-27T12:02:30Z</time>
      </trkpt>
      <trkpt lat="45.57676" lon="6.58399">
        <ele>2312.7</ele>
        <time>2015-12-27T12:02:53Z</time>
      </trkpt>
      <trkpt lat="45.57667" lon="6.58395">
        <ele>2313.9</ele>
        <time>2015-12-27T12:03:07Z</time>
      </trkpt>
      <trkpt lat="45.57659" lon="6.58403">
        <ele>2315.8</ele>
        <time>2015-12-27T12:03:28Z</time>
      </trkpt>
      <trkpt lat="45.57654" lon="6.58413">
        <ele>2316.6</ele>
        <time>2015-12-27T12:03:39Z</time>
      </trkpt>
      <trkpt lat="45.57647" lon="6.58422">
        <ele>2317.3</ele>
        <time>2015-12-27T12:03:51Z</time>
      </trkpt>
      <trkpt lat="45.57638" lon="6.58427">
        <ele>2318</ele>
        <time>2015-12-27T12:04:04Z</time>
      </trkpt>
      <trkpt lat="45.57629" lon="6.58431">
        <ele>2318.3</ele>
        <time>2015-12-27T12:04:14Z</time>
      </trkpt>
      <trkpt lat="45.57619" lon="6.5843">
        <ele>2318.5</ele>
        <time>2015-12-27T12:04:23Z</time>
      </trkpt>
      <trkpt lat="45.57612" lon="6.58439">
        <ele>2318.6</ele>
        <time>2015-12-27T12:04:35Z</time>
      </trkpt>
      <trkpt lat="45.57605" lon="6.58447">
        <ele>2319.4</ele>
        <time>2015-12-27T12:04:53Z</time>
      </trkpt>
      <trkpt lat="45.57597" lon="6.58454">
        <ele>2320.7</ele>
        <time>2015-12-27T12:05:09Z</time>
      </trkpt>
      <trkpt lat="45.57589" lon="6.5846">
        <ele>2321.9</ele>
        <time>2015-12-27T12:05:23Z</time>
      </trkpt>
      <trkpt lat="45.5758" lon="6.58461">
        <ele>2323.9</ele>
        <time>2015-12-27T12:05:43Z</time>
      </trkpt>
      <trkpt lat="45.57575" lon="6.58473">
        <ele>2327</ele>
        <time>2015-12-27T12:06:20Z</time>
      </trkpt>
      <trkpt lat="45.57568" lon="6.58465">
        <ele>2328.1</ele>
        <time>2015-12-27T12:07:31Z</time>
      </trkpt>
      <trkpt lat="45.57561" lon="6.58456">
        <ele>2327.6</ele>
        <time>2015-12-27T12:07:43Z</time>
      </trkpt>
      <trkpt lat="45.57562" lon="6.58443">
        <ele>2325.4</ele>
        <time>2015-12-27T12:08:23Z</time>
      </trkpt>
      <trkpt lat="45.57567" lon="6.58455">
        <ele>2321.7</ele>
        <time>2015-12-27T12:17:03Z</time>
      </trkpt>
      <trkpt lat="45.57577" lon="6.58451">
        <ele>2321.6</ele>
        <time>2015-12-27T12:17:06Z</time>
      </trkpt>
      <trkpt lat="45.57585" lon="6.58444">
        <ele>2320.8</ele>
        <time>2015-12-27T12:17:12Z</time>
      </trkpt>
      <trkpt lat="45.57594" lon="6.58428">
        <ele>2320</ele>
        <time>2015-12-27T12:17:15Z</time>
      </trkpt>
      <trkpt lat="45.57595" lon="6.58414">
        <ele>2317.9</ele>
        <time>2015-12-27T12:17:20Z</time>
      </trkpt>
      <trkpt lat="45.57585" lon="6.58409">
        <ele>2314.9</ele>
        <time>2015-12-27T12:17:26Z</time>
      </trkpt>
      <trkpt lat="45.57578" lon="6.58399">
        <ele>2312.2</ele>
        <time>2015-12-27T12:17:31Z</time>
      </trkpt>
      <trkpt lat="45.5757" lon="6.58393">
        <ele>2307.6</ele>
        <time>2015-12-27T12:17:38Z</time>
      </trkpt>
      <trkpt lat="45.57563" lon="6.58385">
        <ele>2301</ele>
        <time>2015-12-27T12:17:48Z</time>
      </trkpt>
      <trkpt lat="45.57561" lon="6.58371">
        <ele>2293.3</ele>
        <time>2015-12-27T12:17:59Z</time>
      </trkpt>
      <trkpt lat="45.57557" lon="6.5836">
        <ele>2287.2</ele>
        <time>2015-12-27T12:18:07Z</time>
      </trkpt>
      <trkpt lat="45.57553" lon="6.58348">
        <ele>2271.7</ele>
        <time>2015-12-27T12:18:25Z</time>
      </trkpt>
      <trkpt lat="45.57544" lon="6.58342">
        <ele>2258.4</ele>
        <time>2015-12-27T12:18:49Z</time>
      </trkpt>
      <trkpt lat="45.57545" lon="6.58329">
        <ele>2244.6</ele>
        <time>2015-12-27T12:21:15Z</time>
      </trkpt>
      <trkpt lat="45.57553" lon="6.58318">
        <ele>2240.8</ele>
        <time>2015-12-27T12:22:44Z</time>
      </trkpt>
      <trkpt lat="45.57545" lon="6.58311">
        <ele>2239.4</ele>
        <time>2015-12-27T12:22:56Z</time>
      </trkpt>
      <trkpt lat="45.57535" lon="6.58314">
        <ele>2238.7</ele>
        <time>2015-12-27T12:22:59Z</time>
      </trkpt>
      <trkpt lat="45.57527" lon="6.58318">
        <ele>2237.6</ele>
        <time>2015-12-27T12:23:02Z</time>
      </trkpt>
      <trkpt lat="45.57518" lon="6.5831">
        <ele>2235.8</ele>
        <time>2015-12-27T12:23:06Z</time>
      </trkpt>
      <trkpt lat="45.57513" lon="6.58299">
        <ele>2233.5</ele>
        <time>2015-12-27T12:23:10Z</time>
      </trkpt>
      <trkpt lat="45.57515" lon="6.58285">
        <ele>2230.5</ele>
        <time>2015-12-27T12:23:14Z</time>
      </trkpt>
      <trkpt lat="45.57515" lon="6.58269">
        <ele>2225</ele>
        <time>2015-12-27T12:23:20Z</time>
      </trkpt>
      <trkpt lat="45.57512" lon="6.58255">
        <ele>2213.4</ele>
        <time>2015-12-27T12:23:32Z</time>
      </trkpt>
      <trkpt lat="45.57513" lon="6.58242">
        <ele>2209.8</ele>
        <time>2015-12-27T12:23:37Z</time>
      </trkpt>
      <trkpt lat="45.57513" lon="6.58228">
        <ele>2205.1</ele>
        <time>2015-12-27T12:23:43Z</time>
      </trkpt>
      <trkpt lat="45.57509" lon="6.58215">
        <ele>2200</ele>
        <time>2015-12-27T12:23:49Z</time>
      </trkpt>
      <trkpt lat="45.57514" lon="6.58204">
        <ele>2189.3</ele>
        <time>2015-12-27T12:24:07Z</time>
      </trkpt>
      <trkpt lat="45.57523" lon="6.58195">
        <ele>2185.6</ele>
        <time>2015-12-27T12:24:25Z</time>
      </trkpt>
      <trkpt lat="45.57534" lon="6.58183">
        <ele>2185.3</ele>
        <time>2015-12-27T12:24:28Z</time>
      </trkpt>
      <trkpt lat="45.57542" lon="6.58174">
        <ele>2184.9</ele>
        <time>2015-12-27T12:24:30Z</time>
      </trkpt>
      <trkpt lat="45.5755" lon="6.58164">
        <ele>2184.5</ele>
        <time>2015-12-27T12:24:32Z</time>
      </trkpt>
      <trkpt lat="45.57554" lon="6.58152">
        <ele>2182.1</ele>
        <time>2015-12-27T12:24:40Z</time>
      </trkpt>
      <trkpt lat="45.57558" lon="6.5814">
        <ele>2175.4</ele>
        <time>2015-12-27T12:27:53Z</time>
      </trkpt>
      <trkpt lat="45.57567" lon="6.58135">
        <ele>2173.5</ele>
        <time>2015-12-27T12:29:59Z</time>
      </trkpt>
      <trkpt lat="45.57575" lon="6.58131">
        <ele>2173.8</ele>
        <time>2015-12-27T12:30:17Z</time>
      </trkpt>
      <trkpt lat="45.57585" lon="6.58129">
        <ele>2174.7</ele>
        <time>2015-12-27T12:30:29Z</time>
      </trkpt>
      <trkpt lat="45.57594" lon="6.58124">
        <ele>2175.7</ele>
        <time>2015-12-27T12:30:42Z</time>
      </trkpt>
      <trkpt lat="45.57603" lon="6.58127">
        <ele>2178.7</ele>
        <time>2015-12-27T12:31:27Z</time>
      </trkpt>
      <trkpt lat="45.57612" lon="6.58127">
        <ele>2178.8</ele>
        <time>2015-12-27T12:31:37Z</time>
      </trkpt>
      <trkpt lat="45.57621" lon="6.58125">
        <ele>2179.1</ele>
        <time>2015-12-27T12:31:45Z</time>
      </trkpt>
      <trkpt lat="45.57628" lon="6.58117">
        <ele>2179.2</ele>
        <time>2015-12-27T12:31:54Z</time>
      </trkpt>
      <trkpt lat="45.57632" lon="6.58103">
        <ele>2179.2</ele>
        <time>2015-12-27T12:32:04Z</time>
      </trkpt>
      <trkpt lat="45.57632" lon="6.5809">
        <ele>2179</ele>
        <time>2015-12-27T12:32:13Z</time>
      </trkpt>
      <trkpt lat="45.57636" lon="6.58078">
        <ele>2178.7</ele>
        <time>2015-12-27T12:32:27Z</time>
      </trkpt>
      <trkpt lat="45.5764" lon="6.58066">
        <ele>2178.8</ele>
        <time>2015-12-27T12:32:38Z</time>
      </trkpt>
      <trkpt lat="45.57644" lon="6.58053">
        <ele>2179.1</ele>
        <time>2015-12-27T12:32:48Z</time>
      </trkpt>
      <trkpt lat="45.57653" lon="6.58057">
        <ele>2181</ele>
        <time>2015-12-27T12:33:11Z</time>
      </trkpt>
      <trkpt lat="45.57659" lon="6.58048">
        <ele>2182.9</ele>
        <time>2015-12-27T12:33:27Z</time>
      </trkpt>
      <trkpt lat="45.57668" lon="6.58046">
        <ele>2183.6</ele>
        <time>2015-12-27T12:33:36Z</time>
      </trkpt>
      <trkpt lat="45.57677" lon="6.58042">
        <ele>2184.4</ele>
        <time>2015-12-27T12:33:49Z</time>
      </trkpt>
      <trkpt lat="45.57686" lon="6.5804">
        <ele>2185.7</ele>
        <time>2015-12-27T12:34:01Z</time>
      </trkpt>
      <trkpt lat="45.57694" lon="6.58035">
        <ele>2187.3</ele>
        <time>2015-12-27T12:34:16Z</time>
      </trkpt>
      <trkpt lat="45.57703" lon="6.5803">
        <ele>2189</ele>
        <time>2015-12-27T12:34:30Z</time>
      </trkpt>
      <trkpt lat="45.57712" lon="6.58026">
        <ele>2192.2</ele>
        <time>2015-12-27T12:34:47Z</time>
      </trkpt>
      <trkpt lat="45.5772" lon="6.58018">
        <ele>2193.9</ele>
        <time>2015-12-27T12:35:04Z</time>
      </trkpt>
      <trkpt lat="45.5772" lon="6.58004">
        <ele>2195.1</ele>
        <time>2015-12-27T12:35:14Z</time>
      </trkpt>
      <trkpt lat="45.57721" lon="6.57991">
        <ele>2196</ele>
        <time>2015-12-27T12:35:25Z</time>
      </trkpt>
      <trkpt lat="45.57721" lon="6.57978">
        <ele>2196.4</ele>
        <time>2015-12-27T12:35:34Z</time>
      </trkpt>
      <trkpt lat="45.57719" lon="6.57963">
        <ele>2196.8</ele>
        <time>2015-12-27T12:35:44Z</time>
      </trkpt>
      <trkpt lat="45.57716" lon="6.5795">
        <ele>2197</ele>
        <time>2015-12-27T12:35:53Z</time>
      </trkpt>
      <trkpt lat="45.57713" lon="6.57938">
        <ele>2196.9</ele>
        <time>2015-12-27T12:36:03Z</time>
      </trkpt>
      <trkpt lat="45.57722" lon="6.57936">
        <ele>2197.1</ele>
        <time>2015-12-27T12:36:19Z</time>
      </trkpt>
      <trkpt lat="45.57732" lon="6.57938">
        <ele>2198</ele>
        <time>2015-12-27T12:36:28Z</time>
      </trkpt>
      <trkpt lat="45.57741" lon="6.57939">
        <ele>2198.6</ele>
        <time>2015-12-27T12:36:37Z</time>
      </trkpt>
      <trkpt lat="45.57751" lon="6.57938">
        <ele>2198.9</ele>
        <time>2015-12-27T12:36:46Z</time>
      </trkpt>
      <trkpt lat="45.57755" lon="6.57924">
        <ele>2198.9</ele>
        <time>2015-12-27T12:36:51Z</time>
      </trkpt>
      <trkpt lat="45.57757" lon="6.57911">
        <ele>2198</ele>
        <time>2015-12-27T12:36:57Z</time>
      </trkpt>
      <trkpt lat="45.57754" lon="6.57898">
        <ele>2196.3</ele>
        <time>2015-12-27T12:37:10Z</time>
      </trkpt>
      <trkpt lat="45.5775" lon="6.57886">
        <ele>2195.8</ele>
        <time>2015-12-27T12:37:17Z</time>
      </trkpt>
      <trkpt lat="45.57747" lon="6.57871">
        <ele>2195.3</ele>
        <time>2015-12-27T12:37:25Z</time>
      </trkpt>
      <trkpt lat="45.57743" lon="6.57858">
        <ele>2194.8</ele>
        <time>2015-12-27T12:37:32Z</time>
      </trkpt>
      <trkpt lat="45.5774" lon="6.57844">
        <ele>2194.6</ele>
        <time>2015-12-27T12:37:36Z</time>
      </trkpt>
      <trkpt lat="45.57736" lon="6.57831">
        <ele>2193.7</ele>
        <time>2015-12-27T12:37:45Z</time>
      </trkpt>
      <trkpt lat="45.57729" lon="6.5782">
        <ele>2192.8</ele>
        <time>2015-12-27T12:37:54Z</time>
      </trkpt>
      <trkpt lat="45.57724" lon="6.5781">
        <ele>2191.9</ele>
        <time>2015-12-27T12:38:03Z</time>
      </trkpt>
      <trkpt lat="45.57717" lon="6.578">
        <ele>2190.8</ele>
        <time>2015-12-27T12:38:13Z</time>
      </trkpt>
      <trkpt lat="45.57712" lon="6.5779">
        <ele>2190.1</ele>
        <time>2015-12-27T12:38:25Z</time>
      </trkpt>
      <trkpt lat="45.57704" lon="6.57783">
        <ele>2190.3</ele>
        <time>2015-12-27T12:38:41Z</time>
      </trkpt>
      <trkpt lat="45.57694" lon="6.5778">
        <ele>2191</ele>
        <time>2015-12-27T12:38:52Z</time>
      </trkpt>
      <trkpt lat="45.57686" lon="6.57774">
        <ele>2192.6</ele>
        <time>2015-12-27T12:39:09Z</time>
      </trkpt>
      <trkpt lat="45.57677" lon="6.57771">
        <ele>2193.8</ele>
        <time>2015-12-27T12:39:22Z</time>
      </trkpt>
      <trkpt lat="45.5767" lon="6.57764">
        <ele>2195.2</ele>
        <time>2015-12-27T12:39:36Z</time>
      </trkpt>
      <trkpt lat="45.57664" lon="6.57752">
        <ele>2196.6</ele>
        <time>2015-12-27T12:39:53Z</time>
      </trkpt>
      <trkpt lat="45.57662" lon="6.57739">
        <ele>2197.5</ele>
        <time>2015-12-27T12:40:04Z</time>
      </trkpt>
      <trkpt lat="45.57661" lon="6.57725">
        <ele>2198.2</ele>
        <time>2015-12-27T12:40:14Z</time>
      </trkpt>
      <trkpt lat="45.57661" lon="6.57712">
        <ele>2198.5</ele>
        <time>2015-12-27T12:40:21Z</time>
      </trkpt>
      <trkpt lat="45.5766" lon="6.57699">
        <ele>2198.7</ele>
        <time>2015-12-27T12:40:32Z</time>
      </trkpt>
      <trkpt lat="45.57656" lon="6.57687">
        <ele>2199.2</ele>
        <time>2015-12-27T12:40:42Z</time>
      </trkpt>
      <trkpt lat="45.57655" lon="6.57674">
        <ele>2200</ele>
        <time>2015-12-27T12:40:52Z</time>
      </trkpt>
      <trkpt lat="45.57655" lon="6.57661">
        <ele>2201.2</ele>
        <time>2015-12-27T12:41:04Z</time>
      </trkpt>
      <trkpt lat="45.57656" lon="6.57647">
        <ele>2202.4</ele>
        <time>2015-12-27T12:41:17Z</time>
      </trkpt>
      <trkpt lat="45.57656" lon="6.57633">
        <ele>2203.7</ele>
        <time>2015-12-27T12:41:31Z</time>
      </trkpt>
      <trkpt lat="45.57655" lon="6.5762">
        <ele>2204.4</ele>
        <time>2015-12-27T12:41:41Z</time>
      </trkpt>
      <trkpt lat="45.57651" lon="6.57608">
        <ele>2204.6</ele>
        <time>2015-12-27T12:41:47Z</time>
      </trkpt>
      <trkpt lat="45.57646" lon="6.57596">
        <ele>2204.8</ele>
        <time>2015-12-27T12:41:52Z</time>
      </trkpt>
      <trkpt lat="45.57644" lon="6.57583">
        <ele>2204.8</ele>
        <time>2015-12-27T12:41:57Z</time>
      </trkpt>
      <trkpt lat="45.57642" lon="6.57567">
        <ele>2204.6</ele>
        <time>2015-12-27T12:42:02Z</time>
      </trkpt>
      <trkpt lat="45.57641" lon="6.57552">
        <ele>2204.2</ele>
        <time>2015-12-27T12:42:05Z</time>
      </trkpt>
      <trkpt lat="45.5764" lon="6.57546">
        <ele>2204.1</ele>
        <time>2015-12-27T12:42:06Z</time>
      </trkpt>
      <trkpt lat="45.57529" lon="6.57467">
        <ele>2181.8</ele>
        <time>2015-12-27T12:43:20Z</time>
      </trkpt>
      <trkpt lat="45.57519" lon="6.57464">
        <ele>2182</ele>
        <time>2015-12-27T12:43:29Z</time>
      </trkpt>
      <trkpt lat="45.57514" lon="6.57453">
        <ele>2183.4</ele>
        <time>2015-12-27T12:44:45Z</time>
      </trkpt>
      <trkpt lat="45.57511" lon="6.5744">
        <ele>2183.4</ele>
        <time>2015-12-27T12:44:56Z</time>
      </trkpt>
      <trkpt lat="45.5751" lon="6.57426">
        <ele>2183.5</ele>
        <time>2015-12-27T12:45:06Z</time>
      </trkpt>
      <trkpt lat="45.5751" lon="6.57413">
        <ele>2183.5</ele>
        <time>2015-12-27T12:45:14Z</time>
      </trkpt>
      <trkpt lat="45.57514" lon="6.57401">
        <ele>2183.6</ele>
        <time>2015-12-27T12:45:24Z</time>
      </trkpt>
      <trkpt lat="45.57517" lon="6.57388">
        <ele>2183.8</ele>
        <time>2015-12-27T12:45:34Z</time>
      </trkpt>
      <trkpt lat="45.57522" lon="6.57376">
        <ele>2184.1</ele>
        <time>2015-12-27T12:45:44Z</time>
      </trkpt>
      <trkpt lat="45.57527" lon="6.57363">
        <ele>2184.7</ele>
        <time>2015-12-27T12:45:54Z</time>
      </trkpt>
      <trkpt lat="45.57531" lon="6.57351">
        <ele>2185.1</ele>
        <time>2015-12-27T12:46:03Z</time>
      </trkpt>
      <trkpt lat="45.5753" lon="6.57337">
        <ele>2185.5</ele>
        <time>2015-12-27T12:46:11Z</time>
      </trkpt>
      <trkpt lat="45.57528" lon="6.57324">
        <ele>2185.9</ele>
        <time>2015-12-27T12:46:20Z</time>
      </trkpt>
      <trkpt lat="45.57524" lon="6.57309">
        <ele>2186.2</ele>
        <time>2015-12-27T12:46:29Z</time>
      </trkpt>
      <trkpt lat="45.57519" lon="6.57297">
        <ele>2186.4</ele>
        <time>2015-12-27T12:46:39Z</time>
      </trkpt>
      <trkpt lat="45.5751" lon="6.57291">
        <ele>2187</ele>
        <time>2015-12-27T12:46:48Z</time>
      </trkpt>
      <trkpt lat="45.57502" lon="6.57285">
        <ele>2187.6</ele>
        <time>2015-12-27T12:46:57Z</time>
      </trkpt>
      <trkpt lat="45.57493" lon="6.57279">
        <ele>2188.2</ele>
        <time>2015-12-27T12:47:08Z</time>
      </trkpt>
      <trkpt lat="45.57484" lon="6.57275">
        <ele>2188.8</ele>
        <time>2015-12-27T12:47:18Z</time>
      </trkpt>
      <trkpt lat="45.57474" lon="6.57268">
        <ele>2189.3</ele>
        <time>2015-12-27T12:47:27Z</time>
      </trkpt>
      <trkpt lat="45.57467" lon="6.57259">
        <ele>2190.2</ele>
        <time>2015-12-27T12:47:38Z</time>
      </trkpt>
      <trkpt lat="45.57461" lon="6.57247">
        <ele>2191.1</ele>
        <time>2015-12-27T12:47:49Z</time>
      </trkpt>
      <trkpt lat="45.57456" lon="6.57235">
        <ele>2191.5</ele>
        <time>2015-12-27T12:47:56Z</time>
      </trkpt>
      <trkpt lat="45.57451" lon="6.57224">
        <ele>2191.8</ele>
        <time>2015-12-27T12:48:03Z</time>
      </trkpt>
      <trkpt lat="45.57447" lon="6.57212">
        <ele>2191.9</ele>
        <time>2015-12-27T12:48:09Z</time>
      </trkpt>
      <trkpt lat="45.57442" lon="6.572">
        <ele>2191.8</ele>
        <time>2015-12-27T12:48:16Z</time>
      </trkpt>
      <trkpt lat="45.57436" lon="6.57188">
        <ele>2191.5</ele>
        <time>2015-12-27T12:48:24Z</time>
      </trkpt>
      <trkpt lat="45.5743" lon="6.57176">
        <ele>2191.1</ele>
        <time>2015-12-27T12:48:32Z</time>
      </trkpt>
      <trkpt lat="45.57425" lon="6.57165">
        <ele>2190.8</ele>
        <time>2015-12-27T12:48:40Z</time>
      </trkpt>
      <trkpt lat="45.57419" lon="6.57153">
        <ele>2190.7</ele>
        <time>2015-12-27T12:48:48Z</time>
      </trkpt>
      <trkpt lat="45.57414" lon="6.57141">
        <ele>2190.6</ele>
        <time>2015-12-27T12:48:55Z</time>
      </trkpt>
      <trkpt lat="45.57408" lon="6.5713">
        <ele>2190.5</ele>
        <time>2015-12-27T12:49:03Z</time>
      </trkpt>
      <trkpt lat="45.57403" lon="6.5712">
        <ele>2190.3</ele>
        <time>2015-12-27T12:49:11Z</time>
      </trkpt>
      <trkpt lat="45.57399" lon="6.57108">
        <ele>2190.2</ele>
        <time>2015-12-27T12:49:20Z</time>
      </trkpt>
      <trkpt lat="45.57394" lon="6.57096">
        <ele>2190.1</ele>
        <time>2015-12-27T12:49:27Z</time>
      </trkpt>
      <trkpt lat="45.57388" lon="6.57086">
        <ele>2190.1</ele>
        <time>2015-12-27T12:49:34Z</time>
      </trkpt>
      <trkpt lat="45.57384" lon="6.57074">
        <ele>2190</ele>
        <time>2015-12-27T12:49:41Z</time>
      </trkpt>
      <trkpt lat="45.57377" lon="6.57064">
        <ele>2189.8</ele>
        <time>2015-12-27T12:49:49Z</time>
      </trkpt>
      <trkpt lat="45.57371" lon="6.57055">
        <ele>2189.7</ele>
        <time>2015-12-27T12:49:57Z</time>
      </trkpt>
      <trkpt lat="45.57362" lon="6.57047">
        <ele>2189.7</ele>
        <time>2015-12-27T12:50:06Z</time>
      </trkpt>
      <trkpt lat="45.57355" lon="6.57038">
        <ele>2189.6</ele>
        <time>2015-12-27T12:50:16Z</time>
      </trkpt>
      <trkpt lat="45.57347" lon="6.5703">
        <ele>2189.6</ele>
        <time>2015-12-27T12:50:25Z</time>
      </trkpt>
      <trkpt lat="45.57341" lon="6.57019">
        <ele>2189.6</ele>
        <time>2015-12-27T12:50:33Z</time>
      </trkpt>
      <trkpt lat="45.57334" lon="6.57009">
        <ele>2189.6</ele>
        <time>2015-12-27T12:51:29Z</time>
      </trkpt>
      <trkpt lat="45.57327" lon="6.57">
        <ele>2189.6</ele>
        <time>2015-12-27T12:51:38Z</time>
      </trkpt>
      <trkpt lat="45.57319" lon="6.56991">
        <ele>2189.6</ele>
        <time>2015-12-27T12:51:46Z</time>
      </trkpt>
      <trkpt lat="45.57311" lon="6.56983">
        <ele>2189.6</ele>
        <time>2015-12-27T12:51:55Z</time>
      </trkpt>
      <trkpt lat="45.57304" lon="6.56976">
        <ele>2189.6</ele>
        <time>2015-12-27T12:52:02Z</time>
      </trkpt>
      <trkpt lat="45.57297" lon="6.56967">
        <ele>2189.6</ele>
        <time>2015-12-27T12:52:10Z</time>
      </trkpt>
      <trkpt lat="45.57289" lon="6.56958">
        <ele>2189.8</ele>
        <time>2015-12-27T12:52:19Z</time>
      </trkpt>
      <trkpt lat="45.57281" lon="6.56948">
        <ele>2190</ele>
        <time>2015-12-27T12:52:28Z</time>
      </trkpt>
      <trkpt lat="45.57275" lon="6.56938">
        <ele>2190.3</ele>
        <time>2015-12-27T12:52:37Z</time>
      </trkpt>
      <trkpt lat="45.57267" lon="6.56932">
        <ele>2190.6</ele>
        <time>2015-12-27T12:52:46Z</time>
      </trkpt>
      <trkpt lat="45.57259" lon="6.56924">
        <ele>2191.3</ele>
        <time>2015-12-27T12:52:54Z</time>
      </trkpt>
      <trkpt lat="45.57251" lon="6.56916">
        <ele>2191.7</ele>
        <time>2015-12-27T12:53:03Z</time>
      </trkpt>
      <trkpt lat="45.57245" lon="6.56907">
        <ele>2192.2</ele>
        <time>2015-12-27T12:53:14Z</time>
      </trkpt>
      <trkpt lat="45.57238" lon="6.56897">
        <ele>2193</ele>
        <time>2015-12-27T12:53:24Z</time>
      </trkpt>
      <trkpt lat="45.57231" lon="6.56889">
        <ele>2193.8</ele>
        <time>2015-12-27T12:53:34Z</time>
      </trkpt>
      <trkpt lat="45.57222" lon="6.56881">
        <ele>2195.1</ele>
        <time>2015-12-27T12:53:46Z</time>
      </trkpt>
      <trkpt lat="45.57216" lon="6.56872">
        <ele>2196</ele>
        <time>2015-12-27T12:53:55Z</time>
      </trkpt>
      <trkpt lat="45.57211" lon="6.5686">
        <ele>2196.6</ele>
        <time>2015-12-27T12:54:05Z</time>
      </trkpt>
      <trkpt lat="45.57208" lon="6.56848">
        <ele>2196.9</ele>
        <time>2015-12-27T12:54:14Z</time>
      </trkpt>
      <trkpt lat="45.57205" lon="6.56836">
        <ele>2197.2</ele>
        <time>2015-12-27T12:54:23Z</time>
      </trkpt>
      <trkpt lat="45.57203" lon="6.56822">
        <ele>2197.5</ele>
        <time>2015-12-27T12:54:33Z</time>
      </trkpt>
      <trkpt lat="45.572" lon="6.56809">
        <ele>2198.1</ele>
        <time>2015-12-27T12:54:44Z</time>
      </trkpt>
      <trkpt lat="45.57198" lon="6.56795">
        <ele>2199.2</ele>
        <time>2015-12-27T12:54:56Z</time>
      </trkpt>
      <trkpt lat="45.57196" lon="6.56783">
        <ele>2200.4</ele>
        <time>2015-12-27T12:55:07Z</time>
      </trkpt>
      <trkpt lat="45.57194" lon="6.56769">
        <ele>2201</ele>
        <time>2015-12-27T12:55:14Z</time>
      </trkpt>
      <trkpt lat="45.57191" lon="6.56756">
        <ele>2201.6</ele>
        <time>2015-12-27T12:55:24Z</time>
      </trkpt>
      <trkpt lat="45.57188" lon="6.56744">
        <ele>2201.9</ele>
        <time>2015-12-27T12:55:33Z</time>
      </trkpt>
      <trkpt lat="45.57185" lon="6.5673">
        <ele>2202.4</ele>
        <time>2015-12-27T12:55:42Z</time>
      </trkpt>
      <trkpt lat="45.5718" lon="6.56717">
        <ele>2202.8</ele>
        <time>2015-12-27T12:55:51Z</time>
      </trkpt>
      <trkpt lat="45.57175" lon="6.56705">
        <ele>2203</ele>
        <time>2015-12-27T12:55:59Z</time>
      </trkpt>
      <trkpt lat="45.57171" lon="6.56694">
        <ele>2203.1</ele>
        <time>2015-12-27T12:56:06Z</time>
      </trkpt>
      <trkpt lat="45.57165" lon="6.56682">
        <ele>2203.2</ele>
        <time>2015-12-27T12:56:15Z</time>
      </trkpt>
      <trkpt lat="45.57159" lon="6.56672">
        <ele>2203.5</ele>
        <time>2015-12-27T12:56:26Z</time>
      </trkpt>
      <trkpt lat="45.57151" lon="6.56666">
        <ele>2203.8</ele>
        <time>2015-12-27T12:56:33Z</time>
      </trkpt>
      <trkpt lat="45.57142" lon="6.56663">
        <ele>2204.1</ele>
        <time>2015-12-27T12:56:40Z</time>
      </trkpt>
      <trkpt lat="45.57134" lon="6.56657">
        <ele>2204.2</ele>
        <time>2015-12-27T12:56:46Z</time>
      </trkpt>
      <trkpt lat="45.57124" lon="6.5665">
        <ele>2204.4</ele>
        <time>2015-12-27T12:56:54Z</time>
      </trkpt>
      <trkpt lat="45.57115" lon="6.56645">
        <ele>2204.3</ele>
        <time>2015-12-27T12:57:01Z</time>
      </trkpt>
      <trkpt lat="45.57106" lon="6.56639">
        <ele>2204</ele>
        <time>2015-12-27T12:57:08Z</time>
      </trkpt>
      <trkpt lat="45.57099" lon="6.56631">
        <ele>2203.6</ele>
        <time>2015-12-27T12:57:18Z</time>
      </trkpt>
      <trkpt lat="45.5709" lon="6.56629">
        <ele>2203.1</ele>
        <time>2015-12-27T12:57:38Z</time>
      </trkpt>
      <trkpt lat="45.5708" lon="6.5663">
        <ele>2202.8</ele>
        <time>2015-12-27T12:57:48Z</time>
      </trkpt>
      <trkpt lat="45.57071" lon="6.5663">
        <ele>2202.6</ele>
        <time>2015-12-27T12:58:06Z</time>
      </trkpt>
      <trkpt lat="45.57062" lon="6.56628">
        <ele>2203</ele>
        <time>2015-12-27T12:58:16Z</time>
      </trkpt>
      <trkpt lat="45.57053" lon="6.56625">
        <ele>2203.5</ele>
        <time>2015-12-27T12:58:26Z</time>
      </trkpt>
      <trkpt lat="45.57044" lon="6.5662">
        <ele>2204.3</ele>
        <time>2015-12-27T12:58:37Z</time>
      </trkpt>
      <trkpt lat="45.57036" lon="6.56614">
        <ele>2205</ele>
        <time>2015-12-27T12:58:48Z</time>
      </trkpt>
      <trkpt lat="45.57027" lon="6.5661">
        <ele>2206</ele>
        <time>2015-12-27T12:59:00Z</time>
      </trkpt>
      <trkpt lat="45.57019" lon="6.56605">
        <ele>2207</ele>
        <time>2015-12-27T12:59:10Z</time>
      </trkpt>
      <trkpt lat="45.5701" lon="6.56601">
        <ele>2208.1</ele>
        <time>2015-12-27T12:59:19Z</time>
      </trkpt>
      <trkpt lat="45.57001" lon="6.56595">
        <ele>2208.8</ele>
        <time>2015-12-27T12:59:30Z</time>
      </trkpt>
      <trkpt lat="45.56993" lon="6.56589">
        <ele>2209.6</ele>
        <time>2015-12-27T12:59:41Z</time>
      </trkpt>
      <trkpt lat="45.56984" lon="6.56585">
        <ele>2210.5</ele>
        <time>2015-12-27T12:59:52Z</time>
      </trkpt>
      <trkpt lat="45.56975" lon="6.56582">
        <ele>2211.3</ele>
        <time>2015-12-27T13:00:02Z</time>
      </trkpt>
      <trkpt lat="45.56967" lon="6.56578">
        <ele>2212.2</ele>
        <time>2015-12-27T13:00:12Z</time>
      </trkpt>
      <trkpt lat="45.56958" lon="6.56574">
        <ele>2213.1</ele>
        <time>2015-12-27T13:00:22Z</time>
      </trkpt>
      <trkpt lat="45.56948" lon="6.56573">
        <ele>2214</ele>
        <time>2015-12-27T13:00:31Z</time>
      </trkpt>
      <trkpt lat="45.56939" lon="6.5657">
        <ele>2214.6</ele>
        <time>2015-12-27T13:00:40Z</time>
      </trkpt>
      <trkpt lat="45.5693" lon="6.56571">
        <ele>2216.8</ele>
        <time>2015-12-27T13:01:08Z</time>
      </trkpt>
      <trkpt lat="45.56921" lon="6.5657">
        <ele>2217</ele>
        <time>2015-12-27T13:01:18Z</time>
      </trkpt>
      <trkpt lat="45.56912" lon="6.56573">
        <ele>2217.3</ele>
        <time>2015-12-27T13:01:27Z</time>
      </trkpt>
      <trkpt lat="45.56902" lon="6.5657">
        <ele>2218.1</ele>
        <time>2015-12-27T13:01:39Z</time>
      </trkpt>
      <trkpt lat="45.56892" lon="6.56568">
        <ele>2219.1</ele>
        <time>2015-12-27T13:01:50Z</time>
      </trkpt>
      <trkpt lat="45.56884" lon="6.56564">
        <ele>2220.2</ele>
        <time>2015-12-27T13:01:59Z</time>
      </trkpt>
      <trkpt lat="45.56874" lon="6.5656">
        <ele>2220.9</ele>
        <time>2015-12-27T13:02:09Z</time>
      </trkpt>
      <trkpt lat="45.56865" lon="6.56561">
        <ele>2221.3</ele>
        <time>2015-12-27T13:02:19Z</time>
      </trkpt>
      <trkpt lat="45.56856" lon="6.56562">
        <ele>2221.6</ele>
        <time>2015-12-27T13:02:28Z</time>
      </trkpt>
      <trkpt lat="45.56848" lon="6.56567">
        <ele>2222.3</ele>
        <time>2015-12-27T13:02:38Z</time>
      </trkpt>
      <trkpt lat="45.56838" lon="6.56569">
        <ele>2223.4</ele>
        <time>2015-12-27T13:02:51Z</time>
      </trkpt>
      <trkpt lat="45.56829" lon="6.56572">
        <ele>2224.3</ele>
        <time>2015-12-27T13:03:01Z</time>
      </trkpt>
      <trkpt lat="45.5682" lon="6.56578">
        <ele>2225.3</ele>
        <time>2015-12-27T13:03:12Z</time>
      </trkpt>
      <trkpt lat="45.56812" lon="6.56585">
        <ele>2225.7</ele>
        <time>2015-12-27T13:03:21Z</time>
      </trkpt>
      <trkpt lat="45.56805" lon="6.56595">
        <ele>2226</ele>
        <time>2015-12-27T13:03:32Z</time>
      </trkpt>
      <trkpt lat="45.56801" lon="6.56606">
        <ele>2226.3</ele>
        <time>2015-12-27T13:03:44Z</time>
      </trkpt>
      <trkpt lat="45.56799" lon="6.56619">
        <ele>2226.7</ele>
        <time>2015-12-27T13:03:54Z</time>
      </trkpt>
      <trkpt lat="45.56798" lon="6.56632">
        <ele>2227.1</ele>
        <time>2015-12-27T13:04:02Z</time>
      </trkpt>
      <trkpt lat="45.56797" lon="6.56646">
        <ele>2227.6</ele>
        <time>2015-12-27T13:04:11Z</time>
      </trkpt>
      <trkpt lat="45.56794" lon="6.56659">
        <ele>2228.4</ele>
        <time>2015-12-27T13:04:21Z</time>
      </trkpt>
      <trkpt lat="45.56786" lon="6.56665">
        <ele>2229</ele>
        <time>2015-12-27T13:04:32Z</time>
      </trkpt>
      <trkpt lat="45.56777" lon="6.56662">
        <ele>2229.5</ele>
        <time>2015-12-27T13:04:45Z</time>
      </trkpt>
      <trkpt lat="45.56768" lon="6.56658">
        <ele>2230.3</ele>
        <time>2015-12-27T13:05:14Z</time>
      </trkpt>
      <trkpt lat="45.56763" lon="6.56647">
        <ele>2229.1</ele>
        <time>2015-12-27T13:06:22Z</time>
      </trkpt>
      <trkpt lat="45.56755" lon="6.56639">
        <ele>2229.1</ele>
        <time>2015-12-27T13:06:36Z</time>
      </trkpt>
      <trkpt lat="45.56748" lon="6.56632">
        <ele>2229.1</ele>
        <time>2015-12-27T13:06:43Z</time>
      </trkpt>
      <trkpt lat="45.56739" lon="6.56626">
        <ele>2229.1</ele>
        <time>2015-12-27T13:06:51Z</time>
      </trkpt>
      <trkpt lat="45.56731" lon="6.5662">
        <ele>2229.1</ele>
        <time>2015-12-27T13:06:58Z</time>
      </trkpt>
      <trkpt lat="45.56722" lon="6.56614">
        <ele>2229.1</ele>
        <time>2015-12-27T13:07:07Z</time>
      </trkpt>
      <trkpt lat="45.56714" lon="6.56608">
        <ele>2229.1</ele>
        <time>2015-12-27T13:07:15Z</time>
      </trkpt>
      <trkpt lat="45.56705" lon="6.56601">
        <ele>2229.1</ele>
        <time>2015-12-27T13:07:22Z</time>
      </trkpt>
      <trkpt lat="45.56697" lon="6.56594">
        <ele>2229.1</ele>
        <time>2015-12-27T13:07:29Z</time>
      </trkpt>
      <trkpt lat="45.5669" lon="6.56585">
        <ele>2228.9</ele>
        <time>2015-12-27T13:07:36Z</time>
      </trkpt>
      <trkpt lat="45.56683" lon="6.56577">
        <ele>2228.5</ele>
        <time>2015-12-27T13:07:43Z</time>
      </trkpt>
      <trkpt lat="45.56675" lon="6.56567">
        <ele>2228.2</ele>
        <time>2015-12-27T13:07:51Z</time>
      </trkpt>
      <trkpt lat="45.56668" lon="6.56559">
        <ele>2228</ele>
        <time>2015-12-27T13:07:58Z</time>
      </trkpt>
      <trkpt lat="45.56662" lon="6.56549">
        <ele>2227.9</ele>
        <time>2015-12-27T13:08:06Z</time>
      </trkpt>
      <trkpt lat="45.56655" lon="6.56539">
        <ele>2227.6</ele>
        <time>2015-12-27T13:08:14Z</time>
      </trkpt>
      <trkpt lat="45.56649" lon="6.56529">
        <ele>2227.3</ele>
        <time>2015-12-27T13:08:22Z</time>
      </trkpt>
      <trkpt lat="45.56641" lon="6.56518">
        <ele>2226.7</ele>
        <time>2015-12-27T13:08:29Z</time>
      </trkpt>
      <trkpt lat="45.56634" lon="6.56508">
        <ele>2226.3</ele>
        <time>2015-12-27T13:08:35Z</time>
      </trkpt>
      <trkpt lat="45.56625" lon="6.56499">
        <ele>2225.9</ele>
        <time>2015-12-27T13:08:40Z</time>
      </trkpt>
      <trkpt lat="45.56617" lon="6.56488">
        <ele>2225.5</ele>
        <time>2015-12-27T13:08:44Z</time>
      </trkpt>
      <trkpt lat="45.56608" lon="6.56478">
        <ele>2225.2</ele>
        <time>2015-12-27T13:08:47Z</time>
      </trkpt>
      <trkpt lat="45.56601" lon="6.56468">
        <ele>2224.5</ele>
        <time>2015-12-27T13:08:50Z</time>
      </trkpt>
      <trkpt lat="45.56594" lon="6.56458">
        <ele>2223.5</ele>
        <time>2015-12-27T13:08:54Z</time>
      </trkpt>
      <trkpt lat="45.56586" lon="6.5645">
        <ele>2221.7</ele>
        <time>2015-12-27T13:09:01Z</time>
      </trkpt>
      <trkpt lat="45.56578" lon="6.56442">
        <ele>2220.3</ele>
        <time>2015-12-27T13:09:09Z</time>
      </trkpt>
      <trkpt lat="45.56572" lon="6.56433">
        <ele>2219.2</ele>
        <time>2015-12-27T13:09:16Z</time>
      </trkpt>
      <trkpt lat="45.56565" lon="6.56422">
        <ele>2218.4</ele>
        <time>2015-12-27T13:09:23Z</time>
      </trkpt>
      <trkpt lat="45.56559" lon="6.56411">
        <ele>2217.9</ele>
        <time>2015-12-27T13:09:30Z</time>
      </trkpt>
      <trkpt lat="45.56553" lon="6.56402">
        <ele>2217.6</ele>
        <time>2015-12-27T13:09:35Z</time>
      </trkpt>
      <trkpt lat="45.56545" lon="6.56393">
        <ele>2217.1</ele>
        <time>2015-12-27T13:09:40Z</time>
      </trkpt>
      <trkpt lat="45.56537" lon="6.56385">
        <ele>2216.6</ele>
        <time>2015-12-27T13:09:43Z</time>
      </trkpt>
      <trkpt lat="45.56529" lon="6.56377">
        <ele>2215.9</ele>
        <time>2015-12-27T13:09:47Z</time>
      </trkpt>
      <trkpt lat="45.56521" lon="6.5637">
        <ele>2214.9</ele>
        <time>2015-12-27T13:09:54Z</time>
      </trkpt>
      <trkpt lat="45.56512" lon="6.56365">
        <ele>2213.8</ele>
        <time>2015-12-27T13:10:01Z</time>
      </trkpt>
      <trkpt lat="45.56505" lon="6.56358">
        <ele>2212.9</ele>
        <time>2015-12-27T13:10:11Z</time>
      </trkpt>
      <trkpt lat="45.56498" lon="6.5635">
        <ele>2212.4</ele>
        <time>2015-12-27T13:10:21Z</time>
      </trkpt>
      <trkpt lat="45.5649" lon="6.56341">
        <ele>2212.2</ele>
        <time>2015-12-27T13:10:30Z</time>
      </trkpt>
      <trkpt lat="45.56483" lon="6.56332">
        <ele>2212.2</ele>
        <time>2015-12-27T13:10:42Z</time>
      </trkpt>
      <trkpt lat="45.56476" lon="6.56324">
        <ele>2213.9</ele>
        <time>2015-12-27T13:10:53Z</time>
      </trkpt>
      <trkpt lat="45.56467" lon="6.56318">
        <ele>2214.8</ele>
        <time>2015-12-27T13:11:05Z</time>
      </trkpt>
      <trkpt lat="45.56459" lon="6.5631">
        <ele>2215.3</ele>
        <time>2015-12-27T13:11:16Z</time>
      </trkpt>
      <trkpt lat="45.56452" lon="6.563">
        <ele>2216.5</ele>
        <time>2015-12-27T13:11:29Z</time>
      </trkpt>
      <trkpt lat="45.56446" lon="6.5629">
        <ele>2218</ele>
        <time>2015-12-27T13:11:43Z</time>
      </trkpt>
      <trkpt lat="45.56442" lon="6.56277">
        <ele>2220.8</ele>
        <time>2015-12-27T13:12:02Z</time>
      </trkpt>
      <trkpt lat="45.5644" lon="6.56263">
        <ele>2223</ele>
        <time>2015-12-27T13:12:21Z</time>
      </trkpt>
      <trkpt lat="45.56435" lon="6.56252">
        <ele>2224.8</ele>
        <time>2015-12-27T13:12:36Z</time>
      </trkpt>
      <trkpt lat="45.5643" lon="6.5624">
        <ele>2226.3</ele>
        <time>2015-12-27T13:12:48Z</time>
      </trkpt>
      <trkpt lat="45.56423" lon="6.56232">
        <ele>2228.7</ele>
        <time>2015-12-27T13:13:01Z</time>
      </trkpt>
      <trkpt lat="45.56417" lon="6.56222">
        <ele>2230.2</ele>
        <time>2015-12-27T13:13:19Z</time>
      </trkpt>
      <trkpt lat="45.56411" lon="6.56212">
        <ele>2232</ele>
        <time>2015-12-27T13:13:34Z</time>
      </trkpt>
      <trkpt lat="45.56405" lon="6.56201">
        <ele>2233.4</ele>
        <time>2015-12-27T13:13:49Z</time>
      </trkpt>
      <trkpt lat="45.56402" lon="6.56188">
        <ele>2234.6</ele>
        <time>2015-12-27T13:14:02Z</time>
      </trkpt>
      <trkpt lat="45.56396" lon="6.56176">
        <ele>2235.3</ele>
        <time>2015-12-27T13:14:11Z</time>
      </trkpt>
      <trkpt lat="45.56391" lon="6.56165">
        <ele>2235.8</ele>
        <time>2015-12-27T13:14:22Z</time>
      </trkpt>
      <trkpt lat="45.56385" lon="6.56156">
        <ele>2236.6</ele>
        <time>2015-12-27T13:14:33Z</time>
      </trkpt>
      <trkpt lat="45.56376" lon="6.56151">
        <ele>2237.6</ele>
        <time>2015-12-27T13:14:47Z</time>
      </trkpt>
      <trkpt lat="45.56367" lon="6.56149">
        <ele>2239.3</ele>
        <time>2015-12-27T13:15:00Z</time>
      </trkpt>
      <trkpt lat="45.56357" lon="6.56148">
        <ele>2240.9</ele>
        <time>2015-12-27T13:15:13Z</time>
      </trkpt>
      <trkpt lat="45.56348" lon="6.56145">
        <ele>2242</ele>
        <time>2015-12-27T13:15:23Z</time>
      </trkpt>
      <trkpt lat="45.5634" lon="6.5614">
        <ele>2243.2</ele>
        <time>2015-12-27T13:15:35Z</time>
      </trkpt>
      <trkpt lat="45.56331" lon="6.56139">
        <ele>2246.8</ele>
        <time>2015-12-27T13:16:59Z</time>
      </trkpt>
      <trkpt lat="45.56338" lon="6.56149">
        <ele>2247.1</ele>
        <time>2015-12-27T13:17:38Z</time>
      </trkpt>
      <trkpt lat="45.56342" lon="6.5616">
        <ele>2248.2</ele>
        <time>2015-12-27T13:17:53Z</time>
      </trkpt>
      <trkpt lat="45.56333" lon="6.56162">
        <ele>2253.1</ele>
        <time>2015-12-27T13:18:47Z</time>
      </trkpt>
      <trkpt lat="45.56325" lon="6.56168">
        <ele>2259.9</ele>
        <time>2015-12-27T13:19:51Z</time>
      </trkpt>
      <trkpt lat="45.56315" lon="6.56168">
        <ele>2264.4</ele>
        <time>2015-12-27T13:20:28Z</time>
      </trkpt>
      <trkpt lat="45.56306" lon="6.56167">
        <ele>2265.9</ele>
        <time>2015-12-27T13:20:52Z</time>
      </trkpt>
      <trkpt lat="45.56297" lon="6.56171">
        <ele>2265.8</ele>
        <time>2015-12-27T13:21:05Z</time>
      </trkpt>
      <trkpt lat="45.56288" lon="6.5617">
        <ele>2264.9</ele>
        <time>2015-12-27T13:21:16Z</time>
      </trkpt>
      <trkpt lat="45.56279" lon="6.56171">
        <ele>2263.4</ele>
        <time>2015-12-27T13:22:05Z</time>
      </trkpt>
      <trkpt lat="45.5627" lon="6.56172">
        <ele>2262.9</ele>
        <time>2015-12-27T13:22:19Z</time>
      </trkpt>
      <trkpt lat="45.56261" lon="6.56171">
        <ele>2262.7</ele>
        <time>2015-12-27T13:22:34Z</time>
      </trkpt>
      <trkpt lat="45.56252" lon="6.56172">
        <ele>2262.6</ele>
        <time>2015-12-27T13:22:46Z</time>
      </trkpt>
      <trkpt lat="45.56242" lon="6.56172">
        <ele>2262.3</ele>
        <time>2015-12-27T13:22:56Z</time>
      </trkpt>
      <trkpt lat="45.56233" lon="6.56173">
        <ele>2261.4</ele>
        <time>2015-12-27T13:23:09Z</time>
      </trkpt>
      <trkpt lat="45.56224" lon="6.56169">
        <ele>2261.1</ele>
        <time>2015-12-27T13:23:25Z</time>
      </trkpt>
      <trkpt lat="45.56215" lon="6.56171">
        <ele>2262</ele>
        <time>2015-12-27T13:23:42Z</time>
      </trkpt>
      <trkpt lat="45.56205" lon="6.56176">
        <ele>2264</ele>
        <time>2015-12-27T13:24:05Z</time>
      </trkpt>
      <trkpt lat="45.56196" lon="6.5618">
        <ele>2266.7</ele>
        <time>2015-12-27T13:24:27Z</time>
      </trkpt>
      <trkpt lat="45.56187" lon="6.56181">
        <ele>2268</ele>
        <time>2015-12-27T13:24:44Z</time>
      </trkpt>
      <trkpt lat="45.56178" lon="6.5618">
        <ele>2268.9</ele>
        <time>2015-12-27T13:25:02Z</time>
      </trkpt>
      <trkpt lat="45.56168" lon="6.56181">
        <ele>2269.6</ele>
        <time>2015-12-27T13:25:16Z</time>
      </trkpt>
      <trkpt lat="45.56159" lon="6.56179">
        <ele>2271.2</ele>
        <time>2015-12-27T13:25:37Z</time>
      </trkpt>
      <trkpt lat="45.5615" lon="6.56179">
        <ele>2272.1</ele>
        <time>2015-12-27T13:25:54Z</time>
      </trkpt>
      <trkpt lat="45.56142" lon="6.56184">
        <ele>2273.7</ele>
        <time>2015-12-27T13:26:21Z</time>
      </trkpt>
      <trkpt lat="45.56132" lon="6.56184">
        <ele>2276.2</ele>
        <time>2015-12-27T13:26:42Z</time>
      </trkpt>
      <trkpt lat="45.56125" lon="6.56191">
        <ele>2278.1</ele>
        <time>2015-12-27T13:27:00Z</time>
      </trkpt>
      <trkpt lat="45.56115" lon="6.56191">
        <ele>2279.7</ele>
        <time>2015-12-27T13:27:21Z</time>
      </trkpt>
      <trkpt lat="45.56108" lon="6.56199">
        <ele>2283.4</ele>
        <time>2015-12-27T13:27:51Z</time>
      </trkpt>
      <trkpt lat="45.56103" lon="6.56209">
        <ele>2287.4</ele>
        <time>2015-12-27T13:28:23Z</time>
      </trkpt>
      <trkpt lat="45.56095" lon="6.56214">
        <ele>2291</ele>
        <time>2015-12-27T13:28:52Z</time>
      </trkpt>
      <trkpt lat="45.56089" lon="6.56225">
        <ele>2297.2</ele>
        <time>2015-12-27T13:30:48Z</time>
      </trkpt>
      <trkpt lat="45.56085" lon="6.56236">
        <ele>2296.9</ele>
        <time>2015-12-27T13:31:08Z</time>
      </trkpt>
      <trkpt lat="45.56079" lon="6.56247">
        <ele>2294.6</ele>
        <time>2015-12-27T13:31:26Z</time>
      </trkpt>
      <trkpt lat="45.56076" lon="6.56259">
        <ele>2291</ele>
        <time>2015-12-27T13:31:44Z</time>
      </trkpt>
      <trkpt lat="45.56085" lon="6.56257">
        <ele>2287</ele>
        <time>2015-12-27T13:38:36Z</time>
      </trkpt>
      <trkpt lat="45.5609" lon="6.5627">
        <ele>2285.7</ele>
        <time>2015-12-27T13:38:47Z</time>
      </trkpt>
      <trkpt lat="45.56099" lon="6.56275">
        <ele>2278.9</ele>
        <time>2015-12-27T13:39:04Z</time>
      </trkpt>
      <trkpt lat="45.56108" lon="6.56282">
        <ele>2277.4</ele>
        <time>2015-12-27T13:39:08Z</time>
      </trkpt>
      <trkpt lat="45.56118" lon="6.56289">
        <ele>2276</ele>
        <time>2015-12-27T13:39:11Z</time>
      </trkpt>
      <trkpt lat="45.56127" lon="6.56302">
        <ele>2273.7</ele>
        <time>2015-12-27T13:39:14Z</time>
      </trkpt>
      <trkpt lat="45.56135" lon="6.56314">
        <ele>2269.3</ele>
        <time>2015-12-27T13:39:18Z</time>
      </trkpt>
      <trkpt lat="45.56148" lon="6.56315">
        <ele>2245.9</ele>
        <time>2015-12-27T13:39:39Z</time>
      </trkpt>
      <trkpt lat="45.56159" lon="6.5632">
        <ele>2241.8</ele>
        <time>2015-12-27T13:39:44Z</time>
      </trkpt>
      <trkpt lat="45.56169" lon="6.56323">
        <ele>2237.5</ele>
        <time>2015-12-27T13:39:48Z</time>
      </trkpt>
      <trkpt lat="45.56181" lon="6.56315">
        <ele>2233.7</ele>
        <time>2015-12-27T13:39:51Z</time>
      </trkpt>
      <trkpt lat="45.56191" lon="6.56308">
        <ele>2229.8</ele>
        <time>2015-12-27T13:39:54Z</time>
      </trkpt>
      <trkpt lat="45.562" lon="6.56303">
        <ele>2226.1</ele>
        <time>2015-12-27T13:39:57Z</time>
      </trkpt>
      <trkpt lat="45.5621" lon="6.563">
        <ele>2222.2</ele>
        <time>2015-12-27T13:40:00Z</time>
      </trkpt>
      <trkpt lat="45.56222" lon="6.56303">
        <ele>2217.7</ele>
        <time>2015-12-27T13:40:04Z</time>
      </trkpt>
      <trkpt lat="45.56231" lon="6.56306">
        <ele>2214.6</ele>
        <time>2015-12-27T13:40:07Z</time>
      </trkpt>
      <trkpt lat="45.56243" lon="6.56309">
        <ele>2210.6</ele>
        <time>2015-12-27T13:40:11Z</time>
      </trkpt>
      <trkpt lat="45.56254" lon="6.56314">
        <ele>2207.1</ele>
        <time>2015-12-27T13:40:15Z</time>
      </trkpt>
      <trkpt lat="45.56263" lon="6.56318">
        <ele>2203.1</ele>
        <time>2015-12-27T13:40:20Z</time>
      </trkpt>
      <trkpt lat="45.56272" lon="6.56323">
        <ele>2200.5</ele>
        <time>2015-12-27T13:40:24Z</time>
      </trkpt>
      <trkpt lat="45.56282" lon="6.56324">
        <ele>2196.7</ele>
        <time>2015-12-27T13:40:30Z</time>
      </trkpt>
      <trkpt lat="45.56292" lon="6.56329">
        <ele>2194.7</ele>
        <time>2015-12-27T13:40:34Z</time>
      </trkpt>
      <trkpt lat="45.563" lon="6.56339">
        <ele>2192.8</ele>
        <time>2015-12-27T13:40:38Z</time>
      </trkpt>
      <trkpt lat="45.56303" lon="6.56351">
        <ele>2190.8</ele>
        <time>2015-12-27T13:40:43Z</time>
      </trkpt>
      <trkpt lat="45.56304" lon="6.56364">
        <ele>2188.9</ele>
        <time>2015-12-27T13:40:48Z</time>
      </trkpt>
      <trkpt lat="45.56303" lon="6.56379">
        <ele>2188</ele>
        <time>2015-12-27T13:40:51Z</time>
      </trkpt>
      <trkpt lat="45.56304" lon="6.56395">
        <ele>2187.2</ele>
        <time>2015-12-27T13:40:53Z</time>
      </trkpt>
      <trkpt lat="45.56301" lon="6.56408">
        <ele>2186.5</ele>
        <time>2015-12-27T13:40:55Z</time>
      </trkpt>
      <trkpt lat="45.563" lon="6.56423">
        <ele>2185.4</ele>
        <time>2015-12-27T13:40:58Z</time>
      </trkpt>
      <trkpt lat="45.563" lon="6.5644">
        <ele>2184.2</ele>
        <time>2015-12-27T13:41:01Z</time>
      </trkpt>
      <trkpt lat="45.56301" lon="6.56453">
        <ele>2183.4</ele>
        <time>2015-12-27T13:41:03Z</time>
      </trkpt>
      <trkpt lat="45.56299" lon="6.5647">
        <ele>2182.2</ele>
        <time>2015-12-27T13:41:06Z</time>
      </trkpt>
      <trkpt lat="45.56297" lon="6.56484">
        <ele>2181.3</ele>
        <time>2015-12-27T13:41:08Z</time>
      </trkpt>
      <trkpt lat="45.56295" lon="6.56498">
        <ele>2180.4</ele>
        <time>2015-12-27T13:41:10Z</time>
      </trkpt>
      <trkpt lat="45.56294" lon="6.56512">
        <ele>2179.4</ele>
        <time>2015-12-27T13:41:12Z</time>
      </trkpt>
      <trkpt lat="45.56294" lon="6.56527">
        <ele>2178.2</ele>
        <time>2015-12-27T13:41:14Z</time>
      </trkpt>
      <trkpt lat="45.56292" lon="6.56544">
        <ele>2176.9</ele>
        <time>2015-12-27T13:41:16Z</time>
      </trkpt>
      <trkpt lat="45.56289" lon="6.56563">
        <ele>2175.4</ele>
        <time>2015-12-27T13:41:18Z</time>
      </trkpt>
      <trkpt lat="45.56282" lon="6.56584">
        <ele>2173.9</ele>
        <time>2015-12-27T13:41:20Z</time>
      </trkpt>
      <trkpt lat="45.56276" lon="6.56603">
        <ele>2172.4</ele>
        <time>2015-12-27T13:41:22Z</time>
      </trkpt>
      <trkpt lat="45.56269" lon="6.56615">
        <ele>2170.9</ele>
        <time>2015-12-27T13:41:24Z</time>
      </trkpt>
      <trkpt lat="45.56261" lon="6.56628">
        <ele>2169.4</ele>
        <time>2015-12-27T13:41:26Z</time>
      </trkpt>
      <trkpt lat="45.56253" lon="6.5664">
        <ele>2168</ele>
        <time>2015-12-27T13:41:28Z</time>
      </trkpt>
      <trkpt lat="45.56247" lon="6.5665">
        <ele>2166.6</ele>
        <time>2015-12-27T13:41:30Z</time>
      </trkpt>
      <trkpt lat="45.56241" lon="6.5666">
        <ele>2164.6</ele>
        <time>2015-12-27T13:41:33Z</time>
      </trkpt>
      <trkpt lat="45.5623" lon="6.56668">
        <ele>2162.3</ele>
        <time>2015-12-27T13:41:37Z</time>
      </trkpt>
      <trkpt lat="45.56218" lon="6.56673">
        <ele>2160.9</ele>
        <time>2015-12-27T13:41:40Z</time>
      </trkpt>
      <trkpt lat="45.56217" lon="6.5669">
        <ele>2159.6</ele>
        <time>2015-12-27T13:41:43Z</time>
      </trkpt>
      <trkpt lat="45.56206" lon="6.56698">
        <ele>2158.2</ele>
        <time>2015-12-27T13:41:46Z</time>
      </trkpt>
      <trkpt lat="45.56195" lon="6.56695">
        <ele>2157.2</ele>
        <time>2015-12-27T13:41:48Z</time>
      </trkpt>
      <trkpt lat="45.56184" lon="6.56693">
        <ele>2156</ele>
        <time>2015-12-27T13:41:50Z</time>
      </trkpt>
      <trkpt lat="45.56173" lon="6.56695">
        <ele>2154.7</ele>
        <time>2015-12-27T13:41:52Z</time>
      </trkpt>
      <trkpt lat="45.56163" lon="6.56701">
        <ele>2152.9</ele>
        <time>2015-12-27T13:41:55Z</time>
      </trkpt>
      <trkpt lat="45.56156" lon="6.56712">
        <ele>2150.8</ele>
        <time>2015-12-27T13:41:58Z</time>
      </trkpt>
      <trkpt lat="45.56156" lon="6.5673">
        <ele>2148.6</ele>
        <time>2015-12-27T13:42:01Z</time>
      </trkpt>
      <trkpt lat="45.56152" lon="6.56748">
        <ele>2147</ele>
        <time>2015-12-27T13:42:03Z</time>
      </trkpt>
      <trkpt lat="45.56146" lon="6.56764">
        <ele>2145.4</ele>
        <time>2015-12-27T13:42:05Z</time>
      </trkpt>
      <trkpt lat="45.56138" lon="6.56776">
        <ele>2143.8</ele>
        <time>2015-12-27T13:42:07Z</time>
      </trkpt>
      <trkpt lat="45.56133" lon="6.56787">
        <ele>2142.2</ele>
        <time>2015-12-27T13:42:09Z</time>
      </trkpt>
      <trkpt lat="45.56131" lon="6.56802">
        <ele>2140</ele>
        <time>2015-12-27T13:42:12Z</time>
      </trkpt>
      <trkpt lat="45.56125" lon="6.5682">
        <ele>2138.1</ele>
        <time>2015-12-27T13:42:15Z</time>
      </trkpt>
      <trkpt lat="45.56126" lon="6.56836">
        <ele>2136.6</ele>
        <time>2015-12-27T13:42:17Z</time>
      </trkpt>
      <trkpt lat="45.56121" lon="6.56848">
        <ele>2134.5</ele>
        <time>2015-12-27T13:42:20Z</time>
      </trkpt>
      <trkpt lat="45.56117" lon="6.56863">
        <ele>2131.6</ele>
        <time>2015-12-27T13:42:24Z</time>
      </trkpt>
      <trkpt lat="45.56116" lon="6.56879">
        <ele>2130.2</ele>
        <time>2015-12-27T13:42:26Z</time>
      </trkpt>
      <trkpt lat="45.56108" lon="6.56893">
        <ele>2128</ele>
        <time>2015-12-27T13:42:29Z</time>
      </trkpt>
      <trkpt lat="45.56098" lon="6.56889">
        <ele>2125.3</ele>
        <time>2015-12-27T13:42:32Z</time>
      </trkpt>
      <trkpt lat="45.56086" lon="6.56885">
        <ele>2122.7</ele>
        <time>2015-12-27T13:42:35Z</time>
      </trkpt>
      <trkpt lat="45.56074" lon="6.56883">
        <ele>2120.3</ele>
        <time>2015-12-27T13:42:38Z</time>
      </trkpt>
      <trkpt lat="45.56064" lon="6.56892">
        <ele>2118</ele>
        <time>2015-12-27T13:42:41Z</time>
      </trkpt>
      <trkpt lat="45.56067" lon="6.56909">
        <ele>2116.2</ele>
        <time>2015-12-27T13:42:44Z</time>
      </trkpt>
      <trkpt lat="45.56074" lon="6.56921">
        <ele>2115</ele>
        <time>2015-12-27T13:42:46Z</time>
      </trkpt>
      <trkpt lat="45.56081" lon="6.56938">
        <ele>2113.7</ele>
        <time>2015-12-27T13:42:48Z</time>
      </trkpt>
      <trkpt lat="45.56086" lon="6.56956">
        <ele>2112.5</ele>
        <time>2015-12-27T13:42:50Z</time>
      </trkpt>
      <trkpt lat="45.56087" lon="6.56973">
        <ele>2111.1</ele>
        <time>2015-12-27T13:42:52Z</time>
      </trkpt>
      <trkpt lat="45.56088" lon="6.56987">
        <ele>2109.7</ele>
        <time>2015-12-27T13:42:54Z</time>
      </trkpt>
      <trkpt lat="45.56086" lon="6.57005">
        <ele>2107.7</ele>
        <time>2015-12-27T13:42:57Z</time>
      </trkpt>
      <trkpt lat="45.56077" lon="6.57014">
        <ele>2105.8</ele>
        <time>2015-12-27T13:43:00Z</time>
      </trkpt>
      <trkpt lat="45.56064" lon="6.57014">
        <ele>2103.9</ele>
        <time>2015-12-27T13:43:03Z</time>
      </trkpt>
      <trkpt lat="45.56053" lon="6.57017">
        <ele>2102.6</ele>
        <time>2015-12-27T13:43:05Z</time>
      </trkpt>
      <trkpt lat="45.56042" lon="6.57016">
        <ele>2101.3</ele>
        <time>2015-12-27T13:43:07Z</time>
      </trkpt>
      <trkpt lat="45.56031" lon="6.57012">
        <ele>2099.4</ele>
        <time>2015-12-27T13:43:10Z</time>
      </trkpt>
      <trkpt lat="45.56019" lon="6.57018">
        <ele>2097.6</ele>
        <time>2015-12-27T13:43:13Z</time>
      </trkpt>
      <trkpt lat="45.5601" lon="6.57023">
        <ele>2096.3</ele>
        <time>2015-12-27T13:43:15Z</time>
      </trkpt>
      <trkpt lat="45.56" lon="6.57029">
        <ele>2091.2</ele>
        <time>2015-12-27T13:43:24Z</time>
      </trkpt>
      <trkpt lat="45.55992" lon="6.57041">
        <ele>2089</ele>
        <time>2015-12-27T13:43:28Z</time>
      </trkpt>
      <trkpt lat="45.55983" lon="6.57046">
        <ele>2087.8</ele>
        <time>2015-12-27T13:43:30Z</time>
      </trkpt>
      <trkpt lat="45.55977" lon="6.57064">
        <ele>2086</ele>
        <time>2015-12-27T13:43:33Z</time>
      </trkpt>
      <trkpt lat="45.55966" lon="6.57074">
        <ele>2084.6</ele>
        <time>2015-12-27T13:43:35Z</time>
      </trkpt>
      <trkpt lat="45.55954" lon="6.57083">
        <ele>2083.1</ele>
        <time>2015-12-27T13:43:37Z</time>
      </trkpt>
      <trkpt lat="45.55945" lon="6.57083">
        <ele>2081.5</ele>
        <time>2015-12-27T13:43:39Z</time>
      </trkpt>
      <trkpt lat="45.55941" lon="6.57097">
        <ele>2073.5</ele>
        <time>2015-12-27T13:43:52Z</time>
      </trkpt>
      <trkpt lat="45.55933" lon="6.57104">
        <ele>2072.7</ele>
        <time>2015-12-27T13:43:54Z</time>
      </trkpt>
      <trkpt lat="45.55924" lon="6.57107">
        <ele>2070.8</ele>
        <time>2015-12-27T13:43:58Z</time>
      </trkpt>
      <trkpt lat="45.55914" lon="6.57105">
        <ele>2068.6</ele>
        <time>2015-12-27T13:44:03Z</time>
      </trkpt>
      <trkpt lat="45.55903" lon="6.57101">
        <ele>2067</ele>
        <time>2015-12-27T13:44:07Z</time>
      </trkpt>
      <trkpt lat="45.55891" lon="6.57097">
        <ele>2065.8</ele>
        <time>2015-12-27T13:44:10Z</time>
      </trkpt>
      <trkpt lat="45.55885" lon="6.57107">
        <ele>2064.2</ele>
        <time>2015-12-27T13:44:14Z</time>
      </trkpt>
      <trkpt lat="45.55885" lon="6.57122">
        <ele>2061.5</ele>
        <time>2015-12-27T13:44:19Z</time>
      </trkpt>
      <trkpt lat="45.55885" lon="6.57136">
        <ele>2058.8</ele>
        <time>2015-12-27T13:44:23Z</time>
      </trkpt>
      <trkpt lat="45.55879" lon="6.57146">
        <ele>2053.6</ele>
        <time>2015-12-27T13:44:30Z</time>
      </trkpt>
      <trkpt lat="45.55886" lon="6.57155">
        <ele>2047.8</ele>
        <time>2015-12-27T13:44:39Z</time>
      </trkpt>
      <trkpt lat="45.55891" lon="6.5717">
        <ele>2044.5</ele>
        <time>2015-12-27T13:44:45Z</time>
      </trkpt>
      <trkpt lat="45.55897" lon="6.57181">
        <ele>2041.8</ele>
        <time>2015-12-27T13:44:50Z</time>
      </trkpt>
      <trkpt lat="45.55895" lon="6.57195">
        <ele>2033.9</ele>
        <time>2015-12-27T13:45:07Z</time>
      </trkpt>
      <trkpt lat="45.55902" lon="6.57208">
        <ele>2029.1</ele>
        <time>2015-12-27T13:45:18Z</time>
      </trkpt>
      <trkpt lat="45.55913" lon="6.57211">
        <ele>2026</ele>
        <time>2015-12-27T13:45:25Z</time>
      </trkpt>
      <trkpt lat="45.55912" lon="6.57224">
        <ele>2024.7</ele>
        <time>2015-12-27T13:45:28Z</time>
      </trkpt>
      <trkpt lat="45.55921" lon="6.57229">
        <ele>2022.3</ele>
        <time>2015-12-27T13:45:33Z</time>
      </trkpt>
      <trkpt lat="45.55927" lon="6.57241">
        <ele>2019.7</ele>
        <time>2015-12-27T13:45:37Z</time>
      </trkpt>
      <trkpt lat="45.55932" lon="6.57252">
        <ele>2006.4</ele>
        <time>2015-12-27T13:45:58Z</time>
      </trkpt>
      <trkpt lat="45.55942" lon="6.5725">
        <ele>2003.7</ele>
        <time>2015-12-27T13:46:05Z</time>
      </trkpt>
      <trkpt lat="45.55944" lon="6.57263">
        <ele>2001.7</ele>
        <time>2015-12-27T13:46:10Z</time>
      </trkpt>
      <trkpt lat="45.55945" lon="6.57276">
        <ele>2000.8</ele>
        <time>2015-12-27T13:46:12Z</time>
      </trkpt>
      <trkpt lat="45.55942" lon="6.57294">
        <ele>1999.8</ele>
        <time>2015-12-27T13:46:14Z</time>
      </trkpt>
      <trkpt lat="45.55942" lon="6.57311">
        <ele>1998.7</ele>
        <time>2015-12-27T13:46:16Z</time>
      </trkpt>
      <trkpt lat="45.55953" lon="6.57314">
        <ele>1996.2</ele>
        <time>2015-12-27T13:46:20Z</time>
      </trkpt>
      <trkpt lat="45.55958" lon="6.57325">
        <ele>1994</ele>
        <time>2015-12-27T13:46:23Z</time>
      </trkpt>
      <trkpt lat="45.5597" lon="6.57328">
        <ele>1989</ele>
        <time>2015-12-27T13:46:29Z</time>
      </trkpt>
      <trkpt lat="45.5598" lon="6.57329">
        <ele>1986.7</ele>
        <time>2015-12-27T13:46:32Z</time>
      </trkpt>
      <trkpt lat="45.5599" lon="6.57329">
        <ele>1983.9</ele>
        <time>2015-12-27T13:46:36Z</time>
      </trkpt>
      <trkpt lat="45.55993" lon="6.57346">
        <ele>1971.2</ele>
        <time>2015-12-27T13:48:35Z</time>
      </trkpt>
      <trkpt lat="45.55993" lon="6.5736">
        <ele>1971.1</ele>
        <time>2015-12-27T13:48:37Z</time>
      </trkpt>
      <trkpt lat="45.55986" lon="6.57374">
        <ele>1970.9</ele>
        <time>2015-12-27T13:48:39Z</time>
      </trkpt>
      <trkpt lat="45.55982" lon="6.57391">
        <ele>1970.7</ele>
        <time>2015-12-27T13:48:41Z</time>
      </trkpt>
      <trkpt lat="45.55981" lon="6.57406">
        <ele>1970.2</ele>
        <time>2015-12-27T13:48:43Z</time>
      </trkpt>
      <trkpt lat="45.55977" lon="6.57421">
        <ele>1969.7</ele>
        <time>2015-12-27T13:48:45Z</time>
      </trkpt>
      <trkpt lat="45.55975" lon="6.57436">
        <ele>1969</ele>
        <time>2015-12-27T13:48:47Z</time>
      </trkpt>
      <trkpt lat="45.55976" lon="6.57453">
        <ele>1967.8</ele>
        <time>2015-12-27T13:48:50Z</time>
      </trkpt>
      <trkpt lat="45.55982" lon="6.57466">
        <ele>1966.1</ele>
        <time>2015-12-27T13:48:54Z</time>
      </trkpt>
      <trkpt lat="45.55989" lon="6.57476">
        <ele>1964.6</ele>
        <time>2015-12-27T13:48:57Z</time>
      </trkpt>
      <trkpt lat="45.55993" lon="6.57491">
        <ele>1962.5</ele>
        <time>2015-12-27T13:49:00Z</time>
      </trkpt>
      <trkpt lat="45.55995" lon="6.57508">
        <ele>1960.2</ele>
        <time>2015-12-27T13:49:03Z</time>
      </trkpt>
      <trkpt lat="45.55999" lon="6.57526">
        <ele>1957.6</ele>
        <time>2015-12-27T13:49:06Z</time>
      </trkpt>
      <trkpt lat="45.56001" lon="6.57543">
        <ele>1953.8</ele>
        <time>2015-12-27T13:49:10Z</time>
      </trkpt>
      <trkpt lat="45.55999" lon="6.5756">
        <ele>1950.8</ele>
        <time>2015-12-27T13:49:13Z</time>
      </trkpt>
      <trkpt lat="45.5599" lon="6.57572">
        <ele>1947.8</ele>
        <time>2015-12-27T13:49:16Z</time>
      </trkpt>
      <trkpt lat="45.55994" lon="6.57585">
        <ele>1944.8</ele>
        <time>2015-12-27T13:49:19Z</time>
      </trkpt>
      <trkpt lat="45.55999" lon="6.57598">
        <ele>1941.6</ele>
        <time>2015-12-27T13:49:22Z</time>
      </trkpt>
      <trkpt lat="45.55999" lon="6.57616">
        <ele>1938.3</ele>
        <time>2015-12-27T13:49:25Z</time>
      </trkpt>
      <trkpt lat="45.56005" lon="6.57629">
        <ele>1934.8</ele>
        <time>2015-12-27T13:49:28Z</time>
      </trkpt>
      <trkpt lat="45.55997" lon="6.57641">
        <ele>1931.4</ele>
        <time>2015-12-27T13:49:31Z</time>
      </trkpt>
      <trkpt lat="45.5599" lon="6.57656">
        <ele>1928</ele>
        <time>2015-12-27T13:49:34Z</time>
      </trkpt>
      <trkpt lat="45.55985" lon="6.57669">
        <ele>1925.7</ele>
        <time>2015-12-27T13:49:36Z</time>
      </trkpt>
      <trkpt lat="45.55978" lon="6.57685">
        <ele>1923.4</ele>
        <time>2015-12-27T13:49:38Z</time>
      </trkpt>
      <trkpt lat="45.5597" lon="6.57699">
        <ele>1921.2</ele>
        <time>2015-12-27T13:49:40Z</time>
      </trkpt>
      <trkpt lat="45.55963" lon="6.57713">
        <ele>1918</ele>
        <time>2015-12-27T13:49:43Z</time>
      </trkpt>
      <trkpt lat="45.55957" lon="6.57723">
        <ele>1915.1</ele>
        <time>2015-12-27T13:49:46Z</time>
      </trkpt>
      <trkpt lat="45.55951" lon="6.57734">
        <ele>1912.5</ele>
        <time>2015-12-27T13:49:49Z</time>
      </trkpt>
      <trkpt lat="45.55944" lon="6.57742">
        <ele>1909.9</ele>
        <time>2015-12-27T13:49:52Z</time>
      </trkpt>
      <trkpt lat="45.55937" lon="6.57755">
        <ele>1907.7</ele>
        <time>2015-12-27T13:49:55Z</time>
      </trkpt>
      <trkpt lat="45.55934" lon="6.57767">
        <ele>1891.5</ele>
        <time>2015-12-27T13:51:05Z</time>
      </trkpt>
      <trkpt lat="45.55927" lon="6.57782">
        <ele>1891.5</ele>
        <time>2015-12-27T13:51:08Z</time>
      </trkpt>
      <trkpt lat="45.55938" lon="6.57789">
        <ele>1890.9</ele>
        <time>2015-12-27T13:51:14Z</time>
      </trkpt>
      <trkpt lat="45.55934" lon="6.57803">
        <ele>1890</ele>
        <time>2015-12-27T13:51:18Z</time>
      </trkpt>
      <trkpt lat="45.55936" lon="6.57819">
        <ele>1888.2</ele>
        <time>2015-12-27T13:51:23Z</time>
      </trkpt>
      <trkpt lat="45.55928" lon="6.57834">
        <ele>1886.6</ele>
        <time>2015-12-27T13:51:26Z</time>
      </trkpt>
      <trkpt lat="45.55918" lon="6.57845">
        <ele>1884.6</ele>
        <time>2015-12-27T13:51:29Z</time>
      </trkpt>
      <trkpt lat="45.55928" lon="6.57853">
        <ele>1880.5</ele>
        <time>2015-12-27T13:51:35Z</time>
      </trkpt>
      <trkpt lat="45.55926" lon="6.57868">
        <ele>1878.4</ele>
        <time>2015-12-27T13:51:38Z</time>
      </trkpt>
      <trkpt lat="45.55918" lon="6.57877">
        <ele>1876.3</ele>
        <time>2015-12-27T13:51:41Z</time>
      </trkpt>
      <trkpt lat="45.55921" lon="6.57894">
        <ele>1872.6</ele>
        <time>2015-12-27T13:51:46Z</time>
      </trkpt>
      <trkpt lat="45.55913" lon="6.57906">
        <ele>1870.3</ele>
        <time>2015-12-27T13:51:49Z</time>
      </trkpt>
      <trkpt lat="45.55924" lon="6.57904">
        <ele>1863</ele>
        <time>2015-12-27T13:51:59Z</time>
      </trkpt>
      <trkpt lat="45.55929" lon="6.57915">
        <ele>1859.8</ele>
        <time>2015-12-27T13:52:04Z</time>
      </trkpt>
      <trkpt lat="45.55934" lon="6.57927">
        <ele>1855.3</ele>
        <time>2015-12-27T13:52:11Z</time>
      </trkpt>
      <trkpt lat="45.55944" lon="6.57931">
        <ele>1851.6</ele>
        <time>2015-12-27T13:52:16Z</time>
      </trkpt>
      <trkpt lat="45.55951" lon="6.57939">
        <ele>1847.4</ele>
        <time>2015-12-27T13:52:22Z</time>
      </trkpt>
      <trkpt lat="45.55953" lon="6.57953">
        <ele>1842.7</ele>
        <time>2015-12-27T13:52:29Z</time>
      </trkpt>
      <trkpt lat="45.55955" lon="6.57966">
        <ele>1832.7</ele>
        <time>2015-12-27T13:52:50Z</time>
      </trkpt>
      <trkpt lat="45.55956" lon="6.57981">
        <ele>1831.1</ele>
        <time>2015-12-27T13:52:55Z</time>
      </trkpt>
      <trkpt lat="45.55966" lon="6.5798">
        <ele>1826.4</ele>
        <time>2015-12-27T13:53:07Z</time>
      </trkpt>
      <trkpt lat="45.55966" lon="6.57994">
        <ele>1821.9</ele>
        <time>2015-12-27T13:53:19Z</time>
      </trkpt>
      <trkpt lat="45.55968" lon="6.58001">
        <ele>1814.3</ele>
        <time>2015-12-27T13:53:54Z</time>
      </trkpt>
      <trkpt lat="45.55959" lon="6.58003">
        <ele>1810.3</ele>
        <time>2015-12-27T13:55:10Z</time>
      </trkpt>
      <trkpt lat="45.5597" lon="6.58002">
        <ele>1810.3</ele>
        <time>2015-12-27T13:55:11Z</time>
      </trkpt>
      <trkpt lat="45.55977" lon="6.58011">
        <ele>1823.7</ele>
        <time>2015-12-27T13:56:39Z</time>
      </trkpt>
      <trkpt lat="45.55981" lon="6.58023">
        <ele>1823.9</ele>
        <time>2015-12-27T13:56:49Z</time>
      </trkpt>
      <trkpt lat="45.55985" lon="6.58035">
        <ele>1824.1</ele>
        <time>2015-12-27T13:57:01Z</time>
      </trkpt>
      <trkpt lat="45.55986" lon="6.58048">
        <ele>1824.1</ele>
        <time>2015-12-27T13:57:11Z</time>
      </trkpt>
      <trkpt lat="45.55984" lon="6.58062">
        <ele>1823.5</ele>
        <time>2015-12-27T13:57:23Z</time>
      </trkpt>
      <trkpt lat="45.55983" lon="6.58075">
        <ele>1822.5</ele>
        <time>2015-12-27T13:57:35Z</time>
      </trkpt>
      <trkpt lat="45.55986" lon="6.58087">
        <ele>1821.4</ele>
        <time>2015-12-27T13:57:52Z</time>
      </trkpt>
      <trkpt lat="45.55981" lon="6.58098">
        <ele>1819.4</ele>
        <time>2015-12-27T13:58:10Z</time>
      </trkpt>
      <trkpt lat="45.55976" lon="6.58109">
        <ele>1816.1</ele>
        <time>2015-12-27T13:58:27Z</time>
      </trkpt>
      <trkpt lat="45.55971" lon="6.58121">
        <ele>1813.1</ele>
        <time>2015-12-27T13:58:40Z</time>
      </trkpt>
      <trkpt lat="45.55967" lon="6.58134">
        <ele>1810.6</ele>
        <time>2015-12-27T13:58:52Z</time>
      </trkpt>
      <trkpt lat="45.55962" lon="6.58146">
        <ele>1807.4</ele>
        <time>2015-12-27T13:59:08Z</time>
      </trkpt>
      <trkpt lat="45.5596" lon="6.58159">
        <ele>1805.5</ele>
        <time>2015-12-27T13:59:20Z</time>
      </trkpt>
      <trkpt lat="45.55958" lon="6.58171">
        <ele>1801.5</ele>
        <time>2015-12-27T13:59:39Z</time>
      </trkpt>
      <trkpt lat="45.55954" lon="6.58184">
        <ele>1798.7</ele>
        <time>2015-12-27T13:59:53Z</time>
      </trkpt>
      <trkpt lat="45.5595" lon="6.58195">
        <ele>1795.7</ele>
        <time>2015-12-27T14:00:07Z</time>
      </trkpt>
      <trkpt lat="45.55948" lon="6.58209">
        <ele>1793.2</ele>
        <time>2015-12-27T14:00:20Z</time>
      </trkpt>
      <trkpt lat="45.55949" lon="6.58223">
        <ele>1790.5</ele>
        <time>2015-12-27T14:00:35Z</time>
      </trkpt>
      <trkpt lat="45.55945" lon="6.58235">
        <ele>1788.3</ele>
        <time>2015-12-27T14:00:47Z</time>
      </trkpt>
      <trkpt lat="45.55955" lon="6.58236">
        <ele>1781.6</ele>
        <time>2015-12-27T14:01:20Z</time>
      </trkpt>
      <trkpt lat="45.55961" lon="6.58226">
        <ele>1779</ele>
        <time>2015-12-27T14:01:36Z</time>
      </trkpt>
      <trkpt lat="45.55967" lon="6.58215">
        <ele>1776.7</ele>
        <time>2015-12-27T14:01:49Z</time>
      </trkpt>
      <trkpt lat="45.55976" lon="6.58212">
        <ele>1775.4</ele>
        <time>2015-12-27T14:01:58Z</time>
      </trkpt>
      <trkpt lat="45.55983" lon="6.58204">
        <ele>1773.9</ele>
        <time>2015-12-27T14:02:10Z</time>
      </trkpt>
      <trkpt lat="45.55993" lon="6.582">
        <ele>1772.7</ele>
        <time>2015-12-27T14:02:22Z</time>
      </trkpt>
      <trkpt lat="45.56001" lon="6.58195">
        <ele>1771.2</ele>
        <time>2015-12-27T14:02:35Z</time>
      </trkpt>
      <trkpt lat="45.56011" lon="6.58195">
        <ele>1768.9</ele>
        <time>2015-12-27T14:02:51Z</time>
      </trkpt>
      <trkpt lat="45.56021" lon="6.58194">
        <ele>1767.1</ele>
        <time>2015-12-27T14:03:01Z</time>
      </trkpt>
      <trkpt lat="45.5603" lon="6.58197">
        <ele>1766</ele>
        <time>2015-12-27T14:03:09Z</time>
      </trkpt>
      <trkpt lat="45.56037" lon="6.58207">
        <ele>1764.5</ele>
        <time>2015-12-27T14:03:19Z</time>
      </trkpt>
      <trkpt lat="45.56041" lon="6.58218">
        <ele>1763</ele>
        <time>2015-12-27T14:03:27Z</time>
      </trkpt>
      <trkpt lat="45.56046" lon="6.58231">
        <ele>1761.7</ele>
        <time>2015-12-27T14:03:37Z</time>
      </trkpt>
      <trkpt lat="45.56051" lon="6.58242">
        <ele>1760.8</ele>
        <time>2015-12-27T14:03:46Z</time>
      </trkpt>
      <trkpt lat="45.56057" lon="6.58252">
        <ele>1760.3</ele>
        <time>2015-12-27T14:03:55Z</time>
      </trkpt>
      <trkpt lat="45.56065" lon="6.58262">
        <ele>1760</ele>
        <time>2015-12-27T14:04:05Z</time>
      </trkpt>
      <trkpt lat="45.56072" lon="6.58272">
        <ele>1759.8</ele>
        <time>2015-12-27T14:04:15Z</time>
      </trkpt>
      <trkpt lat="45.5608" lon="6.58278">
        <ele>1760.2</ele>
        <time>2015-12-27T14:04:26Z</time>
      </trkpt>
      <trkpt lat="45.56089" lon="6.58279">
        <ele>1760.7</ele>
        <time>2015-12-27T14:04:38Z</time>
      </trkpt>
      <trkpt lat="45.56098" lon="6.58285">
        <ele>1761</ele>
        <time>2015-12-27T14:04:49Z</time>
      </trkpt>
      <trkpt lat="45.56107" lon="6.5829">
        <ele>1761.1</ele>
        <time>2015-12-27T14:05:00Z</time>
      </trkpt>
      <trkpt lat="45.56116" lon="6.58292">
        <ele>1760.6</ele>
        <time>2015-12-27T14:05:08Z</time>
      </trkpt>
      <trkpt lat="45.56125" lon="6.58295">
        <ele>1760.1</ele>
        <time>2015-12-27T14:05:19Z</time>
      </trkpt>
      <trkpt lat="45.56134" lon="6.58301">
        <ele>1760</ele>
        <time>2015-12-27T14:05:29Z</time>
      </trkpt>
      <trkpt lat="45.56139" lon="6.58312">
        <ele>1760.6</ele>
        <time>2015-12-27T14:05:41Z</time>
      </trkpt>
      <trkpt lat="45.56144" lon="6.58323">
        <ele>1761.5</ele>
        <time>2015-12-27T14:05:52Z</time>
      </trkpt>
      <trkpt lat="45.56153" lon="6.58327">
        <ele>1762.8</ele>
        <time>2015-12-27T14:06:07Z</time>
      </trkpt>
      <trkpt lat="45.56161" lon="6.58331">
        <ele>1764.8</ele>
        <time>2015-12-27T14:06:46Z</time>
      </trkpt>
      <trkpt lat="45.56171" lon="6.58329">
        <ele>1765.1</ele>
        <time>2015-12-27T14:06:57Z</time>
      </trkpt>
      <trkpt lat="45.56181" lon="6.58329">
        <ele>1765.2</ele>
        <time>2015-12-27T14:07:07Z</time>
      </trkpt>
      <trkpt lat="45.56192" lon="6.58329">
        <ele>1765.2</ele>
        <time>2015-12-27T14:07:18Z</time>
      </trkpt>
      <trkpt lat="45.56201" lon="6.58331">
        <ele>1765.3</ele>
        <time>2015-12-27T14:07:29Z</time>
      </trkpt>
      <trkpt lat="45.56209" lon="6.58337">
        <ele>1765.8</ele>
        <time>2015-12-27T14:07:41Z</time>
      </trkpt>
      <trkpt lat="45.56218" lon="6.58331">
        <ele>1766.5</ele>
        <time>2015-12-27T14:07:54Z</time>
      </trkpt>
      <trkpt lat="45.56227" lon="6.58328">
        <ele>1767.4</ele>
        <time>2015-12-27T14:08:06Z</time>
      </trkpt>
      <trkpt lat="45.56236" lon="6.58334">
        <ele>1767.9</ele>
        <time>2015-12-27T14:08:15Z</time>
      </trkpt>
      <trkpt lat="45.56245" lon="6.58336">
        <ele>1768.2</ele>
        <time>2015-12-27T14:08:25Z</time>
      </trkpt>
      <trkpt lat="45.56253" lon="6.58341">
        <ele>1768</ele>
        <time>2015-12-27T14:08:36Z</time>
      </trkpt>
      <trkpt lat="45.56262" lon="6.58341">
        <ele>1767.6</ele>
        <time>2015-12-27T14:08:47Z</time>
      </trkpt>
      <trkpt lat="45.56272" lon="6.58342">
        <ele>1767.5</ele>
        <time>2015-12-27T14:08:57Z</time>
      </trkpt>
      <trkpt lat="45.56282" lon="6.58345">
        <ele>1767.4</ele>
        <time>2015-12-27T14:09:07Z</time>
      </trkpt>
      <trkpt lat="45.56291" lon="6.58343">
        <ele>1767.4</ele>
        <time>2015-12-27T14:09:19Z</time>
      </trkpt>
      <trkpt lat="45.563" lon="6.58341">
        <ele>1767.3</ele>
        <time>2015-12-27T14:09:31Z</time>
      </trkpt>
      <trkpt lat="45.56309" lon="6.5834">
        <ele>1767.4</ele>
        <time>2015-12-27T14:09:42Z</time>
      </trkpt>
      <trkpt lat="45.56319" lon="6.58335">
        <ele>1767.4</ele>
        <time>2015-12-27T14:09:51Z</time>
      </trkpt>
      <trkpt lat="45.56327" lon="6.58331">
        <ele>1767.4</ele>
        <time>2015-12-27T14:10:03Z</time>
      </trkpt>
      <trkpt lat="45.56337" lon="6.58328">
        <ele>1767.4</ele>
        <time>2015-12-27T14:10:12Z</time>
      </trkpt>
      <trkpt lat="45.56347" lon="6.58328">
        <ele>1767.4</ele>
        <time>2015-12-27T14:10:23Z</time>
      </trkpt>
      <trkpt lat="45.56354" lon="6.58337">
        <ele>1767.4</ele>
        <time>2015-12-27T14:10:37Z</time>
      </trkpt>
      <trkpt lat="45.56358" lon="6.58349">
        <ele>1768.8</ele>
        <time>2015-12-27T14:11:04Z</time>
      </trkpt>
      <trkpt lat="45.56364" lon="6.58358">
        <ele>1771.7</ele>
        <time>2015-12-27T14:11:21Z</time>
      </trkpt>
      <trkpt lat="45.56372" lon="6.58367">
        <ele>1775.6</ele>
        <time>2015-12-27T14:11:43Z</time>
      </trkpt>
      <trkpt lat="45.5638" lon="6.58372">
        <ele>1780.5</ele>
        <time>2015-12-27T14:12:18Z</time>
      </trkpt>
      <trkpt lat="45.56384" lon="6.58384">
        <ele>1782.8</ele>
        <time>2015-12-27T14:12:36Z</time>
      </trkpt>
      <trkpt lat="45.56392" lon="6.58378">
        <ele>1788.4</ele>
        <time>2015-12-27T14:13:11Z</time>
      </trkpt>
      <trkpt lat="45.56397" lon="6.58388">
        <ele>1790.2</ele>
        <time>2015-12-27T14:13:49Z</time>
      </trkpt>
      <trkpt lat="45.56397" lon="6.5839">
        <ele>1791.2</ele>
        <time>2015-12-27T14:15:17Z</time>
      </trkpt>
    </trkseg>
  </trk>
</gpx>